M I D A S
Marine Information and Data Acquisition System
Tripno 717 of the Zeeleeuw from 2004-05-14 06:12:26 to 2004-05-14 14:22:56
Back to CruiseResearch ActivitiesStationsMapUnderway DataData graphs

EquipmentUnitsComment
TimeDGPSUTC
LatitudeDGPSDM.mWGS84
LongitudeDGPSDM.mWGS84
TemperatureSBE03/SBE38deg celciusITS90
ConductivitySBE21S/mITS90
SalinitySBE21 Practical Salinity Units
ChlorophylAChelsea fluorimeterg/lCalibrated in Aceton
Missing or incorrect values are displayed as -999
Sea surface data collected by the RV Zeeleeuw from 2004-05-14 06:12:26 to 2004-05-14 14:22:56
                                                                                    Next 1000 lines
Time Latitude Longitude Temperature Conductivity Salinity ChlorophylA
2004-05-14 06:12:35 51°13.67 2°55.812 18.192325 4.135019 31.714693 13.781212
2004-05-14 06:12:40 51°13.672 2°55.801 18.191868 4.135019 31.714118 13.781212
2004-05-14 06:12:45 51°13.673 2°55.789 18.192325 4.135019 31.714693 13.781212
2004-05-14 06:12:50 51°13.674 2°55.779 18.210469 4.135019 31.715268 13.781212
2004-05-14 06:12:54 51°13.675 2°55.771 18.213873 4.135019 31.714693 13.781212
2004-05-14 06:13:00 51°13.675 2°55.76 18.213873 4.135019 31.714693 13.781212
2004-05-14 06:13:05 51°13.676 2°55.753 18.19328 4.134913 31.713791 13.747503
2004-05-14 06:13:09 51°13.676 2°55.749 18.24749 4.134913 31.713216 13.781212
2004-05-14 06:13:12 51°13.676 2°55.747 18.258194 4.135019 31.714693 13.781212
2004-05-14 06:13:20 51°13.677 2°55.745 18.266159 4.134913 31.713791 13.747503
2004-05-14 06:13:25 51°13.677 2°55.745 18.279888 4.134913 31.714366 13.781212
2004-05-14 06:13:29 51°13.678 2°55.746 18.279888 4.134913 31.714366 13.781212
2004-05-14 06:13:34 51°13.68 2°55.748 18.292163 4.134808 31.714039 13.781212
2004-05-14 06:13:40 51°13.683 2°55.751 18.339625 4.134808 31.714614 13.747503
2004-05-14 06:13:44 51°13.686 2°55.754 18.34381 4.134808 31.714614 13.713794
2004-05-14 06:13:49 51°13.69 2°55.756 18.408004 4.134808 31.716339 13.747503
2004-05-14 06:13:54 51°13.695 2°55.758 18.448809 4.134702 31.716012 13.747503
2004-05-14 06:13:59 51°13.7 2°55.758 18.448809 4.134702 31.716012 13.747503
2004-05-14 06:14:04 51°13.706 2°55.758 18.433499 4.134808 31.716914 13.781212
2004-05-14 06:14:08 51°13.711 2°55.756 18.407176 4.134808 31.718064 13.713794
2004-05-14 06:14:14 51°13.718 2°55.752 18.405147 4.134702 31.717162 13.747503
2004-05-14 06:14:20 51°13.725 2°55.745 18.434534 4.134702 31.717162 13.713794
2004-05-14 06:14:24 51°13.73 2°55.739 18.30116 4.134702 31.717737 13.713794
2004-05-14 06:14:30 51°13.736 2°55.731 18.174342 4.134808 31.717489 13.781212
2004-05-14 06:14:34 51°13.741 2°55.725 18.174342 4.134808 31.717489 13.781212
2004-05-14 06:14:40 51°13.748 2°55.717 18.172847 4.134702 31.716012 13.713794
2004-05-14 06:14:45 51°13.754 2°55.71 18.135454 4.134702 31.714286 13.747503
2004-05-14 06:14:49 51°13.759 2°55.705 18.143848 4.134702 31.713711 13.747503
2004-05-14 06:14:54 51°13.766 2°55.698 18.140399 4.134702 31.713711 13.713794
2004-05-14 06:14:59 51°13.774 2°55.691 18.152034 4.134597 31.712234 13.781212
2004-05-14 06:15:04 51°13.781 2°55.685 18.152034 4.134597 31.712234 13.781212
2004-05-14 06:15:09 51°13.789 2°55.678 18.158391 4.134491 31.712482 13.747503
2004-05-14 06:15:14 51°13.797 2°55.671 18.172556 4.134597 31.714534 13.713794
2004-05-14 06:15:19 51°13.805 2°55.664 18.178621 4.134491 31.714207 13.747503
2004-05-14 06:15:25 51°13.815 2°55.655 18.183895 4.134702 31.716012 13.781212
2004-05-14 06:15:30 51°13.824 2°55.648 18.188048 4.134491 31.714207 13.781212
2004-05-14 06:15:34 51°13.831 2°55.642 18.188048 4.134491 31.714207 13.781212
2004-05-14 06:15:40 51°13.841 2°55.634 18.180282 4.134491 31.714782 13.713794
2004-05-14 06:15:44 51°13.849 2°55.628 18.168486 4.134491 31.714207 13.747503
2004-05-14 06:15:49 51°13.858 2°55.621 18.173096 4.134386 31.71388 13.747503
2004-05-14 06:15:53 51°13.865 2°55.615 18.177499 4.134491 31.714782 13.747503
2004-05-14 06:16:00 51°13.878 2°55.605 18.185764 4.134386 31.71503 13.713794
2004-05-14 06:16:04 51°13.886 2°55.6 18.185764 4.134386 31.71503 13.713794
2004-05-14 06:16:09 51°13.895 2°55.593 18.18946 4.134386 31.715605 13.747503
2004-05-14 06:16:14 51°13.905 2°55.586 18.194401 4.134281 31.715278 13.680084
2004-05-14 06:16:20 51°13.916 2°55.577 18.194692 4.134386 31.716181 13.713794
2004-05-14 06:16:24 51°13.924 2°55.571 18.194651 4.134386 31.715605 13.713794
2004-05-14 06:16:29 51°13.934 2°55.564 18.194651 4.134386 31.715605 13.713794
2004-05-14 06:16:34 51°13.944 2°55.557 18.194318 4.134281 31.715278 13.713794
2004-05-14 06:16:40 51°13.955 2°55.549 18.191246 4.134281 31.715278 13.747503
2004-05-14 06:16:44 51°13.963 2°55.543 18.196976 4.134175 31.714376 13.747503
2004-05-14 06:16:48 51°13.971 2°55.537 18.197267 4.134175 31.714951 13.713794
2004-05-14 06:16:54 51°13.983 2°55.528 18.202955 4.13407 31.714624 13.713794
2004-05-14 06:17:00 51°13.995 2°55.519 18.202955 4.13407 31.714624 13.713794
2004-05-14 06:17:04 51°14.004 2°55.512 18.205903 4.13407 31.714624 13.646375
2004-05-14 06:17:09 51°14.014 2°55.504 18.193197 4.134175 31.714951 13.680084
2004-05-14 06:17:13 51°14.022 2°55.498 18.192367 4.13407 31.714624 13.713794
2004-05-14 06:17:20 51°14.036 2°55.487 18.18892 4.13407 31.714049 13.680084
2004-05-14 06:17:24 51°14.044 2°55.481 18.191785 4.13407 31.714049 13.713794
2004-05-14 06:17:28 51°14.053 2°55.474 18.191785 4.13407 31.714049 13.713794
2004-05-14 06:17:34 51°14.066 2°55.464 18.211092 4.13407 31.714624 13.646375
2004-05-14 06:17:40 51°14.079 2°55.454 18.195855 4.133964 31.713146 13.680084
2004-05-14 06:17:45 51°14.09 2°55.446 18.173096 4.13407 31.714049 13.680084
2004-05-14 06:17:50 51°14.102 2°55.437 18.16753 4.133964 31.712571 13.680084
2004-05-14 06:17:54 51°14.111 2°55.43 18.183521 4.133964 31.713722 13.713794
2004-05-14 06:18:00 51°14.125 2°55.42 18.183521 4.133964 31.713722 13.713794
2004-05-14 06:18:04 51°14.134 2°55.412 18.173013 4.133859 31.713394 13.680084
2004-05-14 06:18:09 51°14.146 2°55.403 18.196602 4.133964 31.714872 13.713794
2004-05-14 06:18:14 51°14.158 2°55.392 18.220391 4.133859 31.71397 13.680084
2004-05-14 06:18:20 51°14.172 2°55.379 18.201253 4.133753 31.713067 13.680084
2004-05-14 06:18:25 51°14.184 2°55.368 18.172266 4.133859 31.71397 13.680084
2004-05-14 06:18:30 51°14.196 2°55.356 18.180988 4.133753 31.713067 13.680084
2004-05-14 06:18:34 51°14.206 2°55.347 18.180988 4.133753 31.713067 13.680084
2004-05-14 06:18:39 51°14.218 2°55.334 18.212047 4.133964 31.714872 13.646375
2004-05-14 06:18:44 51°14.23 2°55.32 18.257074 4.133753 31.713642 13.646375
2004-05-14 06:18:50 51°14.244 2°55.301 18.246951 4.133859 31.714545 13.680084
2004-05-14 06:18:54 51°14.253 2°55.288 18.223753 4.133753 31.714218 13.680084
2004-05-14 06:19:00 51°14.266 2°55.267 18.175173 4.133859 31.71512 13.680084
2004-05-14 06:19:04 51°14.275 2°55.254 18.175173 4.133859 31.71512 13.680084
2004-05-14 06:19:08 51°14.283 2°55.239 18.184643 4.133859 31.71512 13.646375
2004-05-14 06:19:14 51°14.296 2°55.217 18.214247 4.133543 31.712413 13.646375
2004-05-14 06:19:19 51°14.307 2°55.197 18.159513 4.133648 31.713315 13.713794
2004-05-14 06:19:25 51°14.319 2°55.174 18.130841 4.133753 31.713642 13.612665
2004-05-14 06:19:29 51°14.327 2°55.158 18.156189 4.133543 31.712988 13.680084
2004-05-14 06:19:35 51°14.34 2°55.134 18.156189 4.133543 31.712988 13.680084
2004-05-14 06:19:40 51°14.35 2°55.115 18.135205 4.133543 31.712413 13.578956
2004-05-14 06:19:44 51°14.358 2°55.099 18.097126 4.133753 31.714218 13.612665
2004-05-14 06:19:49 51°14.37 2°55.079 18.142934 4.133648 31.71389 13.646375
2004-05-14 06:19:54 51°14.381 2°55.059 18.096585 4.133543 31.712413 13.646375
2004-05-14 06:19:59 51°14.393 2°55.038 18.096585 4.133543 31.712413 13.646375
2004-05-14 06:20:05 51°14.408 2°55.015 18.088726 4.133437 31.711511 13.646375
2004-05-14 06:20:09 51°14.419 2°55 18.051911 4.133648 31.713315 13.646375
2004-05-14 06:20:14 51°14.434 2°54.982 18.16969 4.133332 31.710033 13.646375
2004-05-14 06:20:19 51°14.447 2°54.963 18.230601 4.133437 31.712661 13.680084
2004-05-14 06:20:24 51°14.462 2°54.945 18.094714 4.133859 31.71512 13.578956
2004-05-14 06:20:29 51°14.477 2°54.927 18.094714 4.133859 31.71512 13.578956
2004-05-14 06:20:33 51°14.489 2°54.913 18.194028 4.133226 31.710856 13.646375
2004-05-14 06:20:40 51°14.509 2°54.889 18.165578 4.133543 31.714139 13.680084
2004-05-14 06:20:45 51°14.525 2°54.872 18.18485 4.133332 31.712909 13.612665
2004-05-14 06:20:48 51°14.534 2°54.861 18.18377 4.133332 31.712334 13.612665
2004-05-14 06:20:54 51°14.552 2°54.842 18.187134 4.133332 31.711758 13.612665
2004-05-14 06:21:00 51°14.571 2°54.822 18.187134 4.133332 31.711758 13.612665
2004-05-14 06:21:04 51°14.583 2°54.809 18.175173 4.133332 31.712334 13.646375
2004-05-14 06:21:09 51°14.599 2°54.792 18.172183 4.133437 31.713236 13.545247
2004-05-14 06:21:14 51°14.614 2°54.775 18.231431 4.133226 31.712582 13.747503
2004-05-14 06:21:20 51°14.633 2°54.755 18.239731 4.13291 31.709299 13.612665
2004-05-14 06:21:25 51°14.649 2°54.739 18.142519 4.133437 31.713811 13.612665
2004-05-14 06:21:30 51°14.664 2°54.722 18.142519 4.133437 31.713811 13.612665
2004-05-14 06:21:34 51°14.676 2°54.709 18.144763 4.133226 31.712006 13.545247
2004-05-14 06:21:39 51°14.692 2°54.692 18.154153 4.133332 31.713484 13.646375
2004-05-14 06:21:44 51°14.708 2°54.676 18.149416 4.133332 31.713484 13.545247
2004-05-14 06:21:50 51°14.726 2°54.656 18.128804 4.133648 31.716192 13.578956
2004-05-14 06:21:54 51°14.739 2°54.642 18.167821 4.133015 31.711352 13.646375
2004-05-14 06:22:00 51°14.757 2°54.622 18.173138 4.133015 31.711352 13.612665
2004-05-14 06:22:04 51°14.77 2°54.609 18.173138 4.133015 31.711352 13.612665
2004-05-14 06:22:08 51°14.782 2°54.595 18.153114 4.133015 31.711352 13.578956
2004-05-14 06:22:14 51°14.801 2°54.575 18.13163 4.133226 31.713157 13.545247
2004-05-14 06:22:20 51°14.819 2°54.555 18.138737 4.133332 31.714059 13.578956
2004-05-14 06:22:25 51°14.834 2°54.538 18.210179 4.132805 31.710122 13.545247
2004-05-14 06:22:29 51°14.847 2°54.524 18.123983 4.133332 31.71521 13.612665
2004-05-14 06:22:34 51°14.862 2°54.507 18.123983 4.133332 31.71521 13.612665
2004-05-14 06:22:39 51°14.877 2°54.491 18.135579 4.132805 31.710122 13.612665
2004-05-14 06:22:44 51°14.893 2°54.474 18.196145 4.132594 31.708317 13.612665
2004-05-14 06:22:50 51°14.912 2°54.455 18.117955 4.133332 31.714635 13.545247
2004-05-14 06:22:54 51°14.924 2°54.441 18.139651 4.133121 31.71283 13.578956
2004-05-14 06:22:59 51°14.939 2°54.424 18.179534 4.132805 31.710698 13.578956
2004-05-14 06:23:04 51°14.954 2°54.407 18.179534 4.132805 31.710698 13.578956
2004-05-14 06:23:10 51°14.972 2°54.386 18.117456 4.133015 31.712503 13.545247
2004-05-14 06:23:14 51°14.984 2°54.373 18.105733 4.133121 31.71398 13.511537
2004-05-14 06:23:19 51°15 2°54.357 18.0975 4.13291 31.712175 13.545247
2004-05-14 06:23:25 51°15.018 2°54.337 18.127433 4.13291 31.7116 13.545247
2004-05-14 06:23:29 51°15.03 2°54.324 18.127433 4.13291 31.7116 13.545247
2004-05-14 06:23:35 51°15.048 2°54.304 18.093758 4.133332 31.71521 13.545247
2004-05-14 06:23:40 51°15.063 2°54.287 18.159762 4.132594 31.710043 13.578956
2004-05-14 06:23:45 51°15.078 2°54.27 18.128264 4.133015 31.713078 13.578956
2004-05-14 06:23:49 51°15.091 2°54.257 18.125396 4.132699 31.710946 13.545247
2004-05-14 06:23:54 51°15.106 2°54.24 18.115711 4.132805 31.711848 13.545247
2004-05-14 06:24:00 51°15.124 2°54.22 18.115711 4.132805 31.711848 13.545247
2004-05-14 06:24:05 51°15.14 2°54.203 18.108685 4.13291 31.712175 13.578956
2004-05-14 06:24:09 51°15.152 2°54.189 18.175796 4.132383 31.708238 13.545247
2004-05-14 06:24:13 51°15.164 2°54.176 18.116916 4.132805 31.712423 13.545247
2004-05-14 06:24:20 51°15.186 2°54.152 18.141064 4.132594 31.710618 13.578956
2004-05-14 06:24:24 51°15.198 2°54.138 18.148419 4.132594 31.710618 13.511537
2004-05-14 06:24:28 51°15.211 2°54.125 18.10461 4.13291 31.713326 13.545247
2004-05-14 06:24:35 51°15.233 2°54.101 18.10461 4.13291 31.713326 13.545247
2004-05-14 06:24:39 51°15.245 2°54.088 18.118496 4.132594 31.710618 13.612665
2004-05-14 06:24:44 51°15.261 2°54.071 18.116126 4.132699 31.711521 13.545247
2004-05-14 06:24:48 51°15.273 2°54.058 18.111387 4.132805 31.712999 13.511537
2004-05-14 06:24:54 51°15.292 2°54.038 18.110098 4.132594 31.711194 13.545247
2004-05-14 06:24:58 51°15.305 2°54.024 18.110098 4.132594 31.711194 13.545247
2004-05-14 06:25:05 51°15.327 2°54 18.114588 4.132699 31.712096 13.511537
2004-05-14 06:25:08 51°15.336 2°53.99 18.129802 4.132594 31.711769 13.545247
2004-05-14 06:25:14 51°15.354 2°53.969 18.157477 4.132277 31.709061 13.545247
2004-05-14 06:25:19 51°15.37 2°53.952 18.109558 4.132594 31.711769 13.477828
2004-05-14 06:25:24 51°15.386 2°53.935 18.095712 4.132805 31.713574 13.477828
2004-05-14 06:25:29 51°15.401 2°53.918 18.134914 4.132172 31.709309 13.545247
2004-05-14 06:25:34 51°15.417 2°53.901 18.134914 4.132172 31.709309 13.545247
2004-05-14 06:25:39 51°15.432 2°53.884 18.133875 4.132383 31.711115 13.545247
2004-05-14 06:25:44 51°15.448 2°53.868 18.103404 4.132488 31.711442 13.511537
2004-05-14 06:25:48 51°15.46 2°53.854 18.130799 4.132277 31.710212 13.477828
2004-05-14 06:25:54 51°15.479 2°53.833 18.109059 4.132488 31.712017 13.511537
2004-05-14 06:26:00 51°15.497 2°53.813 18.123775 4.132383 31.709964 13.410409
2004-05-14 06:26:05 51°15.513 2°53.796 18.123775 4.132383 31.709964 13.410409
2004-05-14 06:26:10 51°15.528 2°53.779 18.10777 4.132488 31.712592 13.545247
2004-05-14 06:26:14 51°15.541 2°53.766 18.096585 4.132594 31.71292 13.444118
2004-05-14 06:26:19 51°15.556 2°53.749 18.123983 4.132172 31.709885 13.511537
2004-05-14 06:26:24 51°15.572 2°53.732 18.107396 4.132383 31.71169 13.444118
2004-05-14 06:26:30 51°15.59 2°53.711 18.120366 4.132172 31.709885 13.511537
2004-05-14 06:26:34 51°15.603 2°53.698 18.120366 4.132172 31.709885 13.511537
2004-05-14 06:26:40 51°15.621 2°53.677 18.126186 4.132067 31.709557 13.545247
2004-05-14 06:26:44 51°15.633 2°53.663 18.133251 4.132067 31.709557 13.511537
2004-05-14 06:26:50 51°15.651 2°53.642 18.109142 4.132172 31.71046 13.511537
2004-05-14 06:26:54 51°15.664 2°53.628 18.107396 4.132488 31.713168 13.3767
2004-05-14 06:27:00 51°15.682 2°53.608 18.110639 4.132277 31.711938 13.477828
2004-05-14 06:27:05 51°15.697 2°53.591 18.110639 4.132277 31.711938 13.477828
2004-05-14 06:27:08 51°15.706 2°53.58 18.12419 4.132172 31.71046 13.477828
2004-05-14 06:27:14 51°15.724 2°53.56 18.093965 4.132383 31.712265 13.444118
2004-05-14 06:27:20 51°15.743 2°53.539 18.135121 4.13175 31.708 13.545247
2004-05-14 06:27:23 51°15.752 2°53.529 18.113258 4.132488 31.713168 13.410409
2004-05-14 06:27:29 51°15.77 2°53.508 18.113258 4.132488 31.713168 13.410409
2004-05-14 06:27:34 51°15.785 2°53.491 18.101908 4.132067 31.710708 13.477828
2004-05-14 06:27:39 51°15.8 2°53.474 18.101325 4.132172 31.711035 13.444118
2004-05-14 06:27:45 51°15.819 2°53.453 18.105068 4.132067 31.710708 13.477828
2004-05-14 06:27:49 51°15.831 2°53.44 18.107396 4.131856 31.708903 13.477828
2004-05-14 06:27:54 51°15.847 2°53.423 18.108768 4.131961 31.709806 13.477828
2004-05-14 06:28:00 51°15.866 2°53.403 18.126975 4.131961 31.710381 13.511537
2004-05-14 06:28:05 51°15.881 2°53.387 18.126975 4.131961 31.710381 13.511537
2004-05-14 06:28:10 51°15.897 2°53.371 18.111803 4.132172 31.711611 13.3767
2004-05-14 06:28:14 51°15.91 2°53.36 18.07446 4.13175 31.708576 13.477828
2004-05-14 06:28:20 51°15.93 2°53.344 18.076415 4.132067 31.710708 13.444118
2004-05-14 06:28:24 51°15.944 2°53.335 18.116334 4.131645 31.707673 13.477828
2004-05-14 06:28:30 51°15.965 2°53.323 18.116334 4.131645 31.707673 13.477828
2004-05-14 06:28:34 51°15.979 2°53.315 18.11226 4.132067 31.711284 13.444118
2004-05-14 06:28:40 51°16.001 2°53.303 18.102282 4.132067 31.711284 13.444118
2004-05-14 06:28:44 51°16.015 2°53.296 18.139277 4.131434 31.707018 13.511537
2004-05-14 06:28:50 51°16.036 2°53.285 18.121281 4.131856 31.710629 13.477828
2004-05-14 06:28:54 51°16.05 2°53.277 18.151078 4.131645 31.709399 13.444118
2004-05-14 06:28:59 51°16.068 2°53.266 18.151078 4.131645 31.709399 13.444118
2004-05-14 06:29:05 51°16.089 2°53.253 18.121572 4.131856 31.711204 13.477828
2004-05-14 06:29:08 51°16.099 2°53.246 18.139818 4.131539 31.709072 13.444118
2004-05-14 06:29:14 51°16.12 2°53.232 18.112509 4.131856 31.711204 13.410409
2004-05-14 06:29:20 51°16.14 2°53.218 18.140773 4.131434 31.708169 13.410409
2004-05-14 06:29:25 51°16.157 2°53.206 18.104153 4.131856 31.711204 13.444118
2004-05-14 06:29:29 51°16.171 2°53.196 18.116625 4.131645 31.709974 13.444118
2004-05-14 06:29:34 51°16.188 2°53.183 18.116625 4.131645 31.709974 13.444118
2004-05-14 06:29:39 51°16.205 2°53.171 18.109558 4.131645 31.709399 13.477828
2004-05-14 06:29:45 51°16.226 2°53.157 18.127433 4.131539 31.708496 13.410409
2004-05-14 06:29:50 51°16.243 2°53.145 18.104693 4.131645 31.709974 13.444118
2004-05-14 06:29:54 51°16.257 2°53.136 18.123983 4.131539 31.709072 13.3767
2004-05-14 06:30:00 51°16.278 2°53.121 18.109059 4.131856 31.712355 13.3767
2004-05-14 06:30:05 51°16.295 2°53.109 18.109059 4.131856 31.712355 13.3767
2004-05-14 06:30:08 51°16.305 2°53.102 18.114838 4.131434 31.70932 13.444118
2004-05-14 06:30:12 51°16.319 2°53.092 18.126061 4.131434 31.708744 13.444118
2004-05-14 06:30:20 51°16.346 2°53.073 18.10303 4.13175 31.711453 13.410409
2004-05-14 06:30:24 51°16.36 2°53.063 18.145261 4.131223 31.70809 13.477828
2004-05-14 06:30:30 51°16.38 2°53.049 18.10303 4.131961 31.713834 13.3767
2004-05-14 06:30:34 51°16.394 2°53.039 18.10303 4.131961 31.713834 13.3767
2004-05-14 06:30:38 51°16.408 2°53.03 18.120449 4.131434 31.70932 13.410409
2004-05-14 06:30:44 51°16.429 2°53.016 18.10989 4.131434 31.70932 13.444118
2004-05-14 06:30:49 51°16.446 2°53.004 18.120283 4.131434 31.709895 13.410409
2004-05-14 06:30:54 51°16.462 2°52.991 18.118953 4.131434 31.70932 13.410409
2004-05-14 06:31:00 51°16.482 2°52.976 18.132088 4.131223 31.70809 13.477828
2004-05-14 06:31:04 51°16.496 2°52.966 18.132088 4.131223 31.70809 13.477828
2004-05-14 06:31:10 51°16.516 2°52.951 18.116334 4.131645 31.711125 13.34299
2004-05-14 06:31:14 51°16.53 2°52.942 18.108061 4.131434 31.710471 13.444118
2004-05-14 06:31:20 51°16.55 2°52.928 18.1202 4.131329 31.709568 13.477828
2004-05-14 06:31:25 51°16.567 2°52.915 18.120948 4.131434 31.710471 13.444118
2004-05-14 06:31:30 51°16.584 2°52.903 18.145469 4.130907 31.706533 13.3767
2004-05-14 06:31:34 51°16.597 2°52.893 18.145469 4.130907 31.706533 13.3767
2004-05-14 06:31:40 51°16.617 2°52.878 18.118205 4.131434 31.711622 13.444118
2004-05-14 06:31:44 51°16.63 2°52.868 18.124648 4.131223 31.709241 13.477828
2004-05-14 06:31:50 51°16.65 2°52.854 18.120283 4.131223 31.708665 13.410409
2004-05-14 06:31:54 51°16.664 2°52.844 18.1202 4.131223 31.709241 13.410409
2004-05-14 06:31:59 51°16.68 2°52.831 18.116625 4.131434 31.711046 13.3767
2004-05-14 06:32:04 51°16.697 2°52.819 18.116625 4.131434 31.711046 13.3767
2004-05-14 06:32:10 51°16.717 2°52.804 18.128222 4.131118 31.708914 13.410409
2004-05-14 06:32:15 51°16.733 2°52.791 18.120075 4.131434 31.711622 13.444118
2004-05-14 06:32:20 51°16.75 2°52.779 18.123983 4.131012 31.708011 13.444118
2004-05-14 06:32:25 51°16.766 2°52.766 18.137283 4.130907 31.707108 13.410409
2004-05-14 06:32:28 51°16.776 2°52.759 18.098997 4.131434 31.711046 13.444118
2004-05-14 06:32:32 51°16.789 2°52.75 18.098997 4.131434 31.711046 13.444118
2004-05-14 06:32:40 51°16.816 2°52.734 18.122985 4.131118 31.708338 13.3767
2004-05-14 06:32:45 51°16.834 2°52.725 18.115503 4.131329 31.710719 13.410409
2004-05-14 06:32:48 51°16.844 2°52.719 18.117623 4.131223 31.710392 13.410409
2004-05-14 06:32:54 51°16.865 2°52.709 18.125562 4.131118 31.710065 13.410409
2004-05-14 06:33:00 51°16.885 2°52.698 18.11887 4.131223 31.710392 13.410409
2004-05-14 06:33:05 51°16.903 2°52.689 18.11887 4.131223 31.710392 13.410409
2004-05-14 06:33:09 51°16.916 2°52.682 18.135662 4.131012 31.708586 13.410409
2004-05-14 06:33:14 51°16.934 2°52.673 18.13454 4.131012 31.709737 13.410409
2004-05-14 06:33:20 51°16.954 2°52.661 18.123816 4.131118 31.71064 13.410409
2004-05-14 06:33:24 51°16.968 2°52.653 18.145885 4.130801 31.708507 13.410409
2004-05-14 06:33:29 51°16.985 2°52.644 18.118038 4.131012 31.710313 13.410409
2004-05-14 06:33:34 51°17.003 2°52.634 18.118038 4.131012 31.710313 13.410409
2004-05-14 06:33:40 51°17.023 2°52.622 18.152325 4.130696 31.707029 13.3767
2004-05-14 06:33:44 51°17.037 2°52.614 18.120533 4.131118 31.71064 13.3767
2004-05-14 06:33:48 51°17.051 2°52.607 18.122403 4.131118 31.710065 13.410409
2004-05-14 06:33:54 51°17.072 2°52.596 18.136493 4.130801 31.707932 13.410409
2004-05-14 06:34:00 51°17.092 2°52.585 18.143391 4.130696 31.707029 13.444118
2004-05-14 06:34:05 51°17.109 2°52.576 18.143391 4.130696 31.707029 13.444118
2004-05-14 06:34:09 51°17.123 2°52.569 18.127183 4.131012 31.710313 13.34299
2004-05-14 06:34:14 51°17.14 2°52.559 18.127807 4.130907 31.710561 13.410409
2004-05-14 06:34:20 51°17.161 2°52.549 18.106855 4.131012 31.710888 13.34299
2004-05-14 06:34:24 51°17.175 2°52.543 18.113258 4.131223 31.712694 13.3767
2004-05-14 06:34:30 51°17.196 2°52.535 18.136119 4.130485 31.70695 13.477828
2004-05-14 06:34:34 51°17.21 2°52.53 18.136119 4.130485 31.70695 13.477828
2004-05-14 06:34:40 51°17.231 2°52.523 18.126809 4.130696 31.70818 13.444118
2004-05-14 06:34:45 51°17.249 2°52.517 18.15594 4.13038 31.705471 13.410409
2004-05-14 06:34:49 51°17.263 2°52.513 18.13109 4.13038 31.706047 13.410409
2004-05-14 06:34:54 51°17.281 2°52.507 18.137906 4.130696 31.708755 13.410409
2004-05-14 06:35:00 51°17.302 2°52.501 18.133958 4.130696 31.709331 13.3767
2004-05-14 06:35:04 51°17.317 2°52.496 18.133958 4.130696 31.709331 13.3767
2004-05-14 06:35:10 51°17.338 2°52.489 18.162005 4.130063 31.704489 13.3767
2004-05-14 06:35:15 51°17.355 2°52.483 18.128763 4.131012 31.71204 13.410409
2004-05-14 06:35:20 51°17.373 2°52.477 18.146466 4.130485 31.707525 13.3767
2004-05-14 06:35:24 51°17.387 2°52.472 18.13109 4.130801 31.710234 13.410409
2004-05-14 06:35:30 51°17.408 2°52.465 18.13109 4.130801 31.710234 13.410409
2004-05-14 06:35:34 51°17.423 2°52.461 18.140192 4.130485 31.707525 13.410409
2004-05-14 06:35:40 51°17.444 2°52.454 18.127682 4.130907 31.710561 13.309281
2004-05-14 06:35:45 51°17.462 2°52.449 18.157809 4.130169 31.705392 13.410409
2004-05-14 06:35:49 51°17.476 2°52.444 18.141064 4.130696 31.709906 13.309281
2004-05-14 06:35:53 51°17.49 2°52.44 18.136493 4.130591 31.709579 13.444118
2004-05-14 06:36:00 51°17.515 2°52.431 18.136493 4.130591 31.709579 13.444118
2004-05-14 06:36:05 51°17.532 2°52.425 18.132753 4.13038 31.707198 13.3767
2004-05-14 06:36:09 51°17.546 2°52.42 18.129386 4.130696 31.709906 13.34299
2004-05-14 06:36:14 51°17.564 2°52.414 18.140981 4.13038 31.707773 13.3767
2004-05-14 06:36:20 51°17.586 2°52.407 18.138529 4.130485 31.708676 13.34299
2004-05-14 06:36:25 51°17.603 2°52.402 18.124897 4.131118 31.714094 13.309281
2004-05-14 06:36:30 51°17.621 2°52.396 18.128181 4.130696 31.711058 13.3767
2004-05-14 06:36:34 51°17.636 2°52.392 18.128181 4.130696 31.711058 13.3767
2004-05-14 06:36:40 51°17.657 2°52.386 18.164207 4.129958 31.705313 13.3767
2004-05-14 06:36:44 51°17.671 2°52.381 18.14094 4.130907 31.711712 13.309281
2004-05-14 06:36:48 51°17.685 2°52.376 18.150164 4.130169 31.707119 13.3767
2004-05-14 06:36:54 51°17.706 2°52.369 18.134498 4.130591 31.709579 13.34299
2004-05-14 06:37:00 51°17.728 2°52.362 18.135163 4.130169 31.707119 13.3767
2004-05-14 06:37:05 51°17.745 2°52.356 18.135163 4.130169 31.707119 13.3767
2004-05-14 06:37:09 51°17.76 2°52.352 18.151826 4.130169 31.706543 13.3767
2004-05-14 06:37:14 51°17.778 2°52.346 18.140482 4.130485 31.709252 13.34299
2004-05-14 06:37:20 51°17.799 2°52.339 18.134041 4.130485 31.709827 13.34299
2004-05-14 06:37:24 51°17.813 2°52.336 18.130384 4.13038 31.708925 13.34299
2004-05-14 06:37:30 51°17.835 2°52.331 18.137241 4.13038 31.7095 13.3767
2004-05-14 06:37:34 51°17.849 2°52.329 18.137241 4.13038 31.7095 13.3767
2004-05-14 06:37:40 51°17.871 2°52.325 18.136867 4.130485 31.709827 13.34299
2004-05-14 06:37:44 51°17.885 2°52.324 18.130134 4.130485 31.710403 13.3767
2004-05-14 06:37:48 51°17.9 2°52.323 18.148752 4.129536 31.701701 13.34299
2004-05-14 06:37:54 51°17.922 2°52.325 18.133043 4.130591 31.71073 13.34299
2004-05-14 06:38:00 51°17.943 2°52.329 18.128014 4.130485 31.709827 13.309281
2004-05-14 06:38:05 51°17.961 2°52.332 18.128014 4.130485 31.709827 13.309281
2004-05-14 06:38:10 51°17.979 2°52.337 18.150829 4.130274 31.708597 13.309281
2004-05-14 06:38:14 51°17.993 2°52.341 18.150289 4.130169 31.70827 13.34299
2004-05-14 06:38:19 51°18.011 2°52.346 18.149458 4.130063 31.707943 13.34299
2004-05-14 06:38:24 51°18.029 2°52.352 18.144098 4.130063 31.707943 13.34299
2004-05-14 06:38:29 51°18.047 2°52.359 18.143765 4.130169 31.708845 13.34299
2004-05-14 06:38:34 51°18.064 2°52.366 18.143765 4.130169 31.708845 13.34299
2004-05-14 06:38:40 51°18.085 2°52.375 18.17239 4.129642 31.704331 13.3767
2004-05-14 06:38:45 51°18.103 2°52.382 18.155067 4.130063 31.707943 13.309281
2004-05-14 06:38:50 51°18.12 2°52.39 18.150123 4.130169 31.709421 13.34299
2004-05-14 06:38:54 51°18.134 2°52.396 18.166409 4.129747 31.705234 13.34299
2004-05-14 06:39:00 51°18.156 2°52.405 18.153987 4.130063 31.708518 13.34299
2004-05-14 06:39:04 51°18.17 2°52.411 18.153987 4.130063 31.708518 13.34299
2004-05-14 06:39:09 51°18.187 2°52.419 18.151826 4.130063 31.709094 13.309281
2004-05-14 06:39:15 51°18.208 2°52.427 18.163708 4.129747 31.705809 13.309281
2004-05-14 06:39:20 51°18.226 2°52.434 18.166242 4.129747 31.70696 13.34299
2004-05-14 06:39:24 51°18.24 2°52.44 18.154776 4.129958 31.708191 13.309281
2004-05-14 06:39:30 51°18.262 2°52.448 18.154776 4.129958 31.708191 13.309281
2004-05-14 06:39:34 51°18.276 2°52.454 18.145261 4.130064 31.70967 13.309281
2004-05-14 06:39:40 51°18.297 2°52.463 18.179783 4.12922 31.703021 13.309281
2004-05-14 06:39:44 51°18.311 2°52.469 18.154278 4.130169 31.710573 13.34299
2004-05-14 06:39:48 51°18.325 2°52.474 18.155815 4.129853 31.707288 13.309281
2004-05-14 06:39:55 51°18.35 2°52.484 18.157228 4.129853 31.708439 13.309281
2004-05-14 06:39:59 51°18.364 2°52.49 18.157228 4.129853 31.708439 13.309281
2004-05-14 06:40:04 51°18.382 2°52.496 18.16051 4.129747 31.706385 13.34299
2004-05-14 06:40:09 51°18.4 2°52.503 18.157851 4.129853 31.707863 13.34299
2004-05-14 06:40:14 51°18.417 2°52.51 18.161964 4.129747 31.707536 13.34299
2004-05-14 06:40:20 51°18.439 2°52.518 18.163958 4.129958 31.709342 13.34299
2004-05-14 06:40:25 51°18.456 2°52.524 18.159056 4.129958 31.709918 13.34299
2004-05-14 06:40:30 51°18.474 2°52.531 18.164041 4.129642 31.706633 13.34299
2004-05-14 06:40:34 51°18.489 2°52.536 18.164041 4.129642 31.706633 13.34299
2004-05-14 06:40:40 51°18.51 2°52.545 18.165536 4.129642 31.707209 13.309281
2004-05-14 06:40:45 51°18.528 2°52.551 18.163958 4.129853 31.709015 13.309281
2004-05-14 06:40:49 51°18.542 2°52.557 18.18186 4.129431 31.705978 13.34299
2004-05-14 06:40:54 51°18.559 2°52.563 18.162213 4.129747 31.708112 13.309281
2004-05-14 06:41:00 51°18.581 2°52.571 18.165495 4.129853 31.709015 13.309281
2004-05-14 06:41:05 51°18.598 2°52.578 18.165495 4.129853 31.709015 13.309281
2004-05-14 06:41:09 51°18.613 2°52.583 18.170812 4.129642 31.707209 13.3767
2004-05-14 06:41:14 51°18.63 2°52.59 18.181113 4.129536 31.706881 13.309281
2004-05-14 06:41:19 51°18.648 2°52.597 18.171518 4.129431 31.705978 13.34299
2004-05-14 06:41:25 51°18.669 2°52.605 18.16699 4.129642 31.707784 13.309281
2004-05-14 06:41:28 51°18.68 2°52.608 18.172639 4.129642 31.70836 13.34299
2004-05-14 06:41:35 51°18.705 2°52.617 18.172639 4.129642 31.70836 13.34299
2004-05-14 06:41:40 51°18.723 2°52.623 18.172183 4.129642 31.70836 13.309281
2004-05-14 06:41:44 51°18.737 2°52.629 18.173013 4.129536 31.707457 13.3767
2004-05-14 06:41:48 51°18.752 2°52.634 18.168195 4.129642 31.708936 13.34299
2004-05-14 06:41:54 51°18.773 2°52.642 18.170438 4.129431 31.706554 13.309281
2004-05-14 06:41:59 51°18.791 2°52.648 18.175049 4.129536 31.707457 13.309281
2004-05-14 06:42:04 51°18.809 2°52.654 18.175049 4.129536 31.707457 13.309281
2004-05-14 06:42:10 51°18.83 2°52.662 18.177125 4.12922 31.705899 13.34299
2004-05-14 06:42:15 51°18.848 2°52.669 18.183148 4.129431 31.70713 13.34299
2004-05-14 06:42:19 51°18.862 2°52.674 18.17563 4.129536 31.708609 13.309281
2004-05-14 06:42:24 51°18.88 2°52.681 18.174052 4.129642 31.708936 13.275571
2004-05-14 06:42:30 51°18.901 2°52.689 18.180282 4.129536 31.708609 13.3767
2004-05-14 06:42:34 51°18.915 2°52.695 18.180282 4.129536 31.708609 13.3767
2004-05-14 06:42:40 51°18.937 2°52.703 18.179617 4.129431 31.70713 13.34299
2004-05-14 06:42:45 51°18.954 2°52.709 18.189543 4.129115 31.705572 13.34299
2004-05-14 06:42:48 51°18.965 2°52.713 18.182234 4.129325 31.706802 13.34299
2004-05-14 06:42:54 51°18.987 2°52.721 18.180822 4.129325 31.706802 13.309281
2004-05-14 06:43:00 51°19.008 2°52.728 18.180822 4.129325 31.706802 13.309281
2004-05-14 06:43:04 51°19.023 2°52.733 18.182691 4.129431 31.708281 13.34299
2004-05-14 06:43:09 51°19.041 2°52.739 18.185183 4.12922 31.706475 13.309281
2004-05-14 06:43:14 51°19.058 2°52.746 18.180905 4.129431 31.707705 13.309281
2004-05-14 06:43:20 51°19.08 2°52.754 18.191993 4.12922 31.706475 13.309281
2004-05-14 06:43:25 51°19.098 2°52.76 18.190207 4.129325 31.706802 13.275571
2004-05-14 06:43:29 51°19.112 2°52.765 18.190207 4.129325 31.706802 13.275571
2004-05-14 06:43:34 51°19.13 2°52.771 18.189958 4.12922 31.707626 13.309281
2004-05-14 06:43:40 51°19.152 2°52.779 18.181029 4.129326 31.707954 13.3767
2004-05-14 06:43:44 51°19.166 2°52.784 18.194194 4.129115 31.706148 13.309281
2004-05-14 06:43:50 51°19.188 2°52.792 18.183978 4.129431 31.708857 13.309281
2004-05-14 06:43:53 51°19.199 2°52.796 18.19735 4.129009 31.705244 13.275571
2004-05-14 06:44:00 51°19.224 2°52.804 18.196145 4.129115 31.706723 13.309281
2004-05-14 06:44:05 51°19.242 2°52.811 18.196145 4.129115 31.706723 13.309281
2004-05-14 06:44:09 51°19.256 2°52.816 18.189169 4.129536 31.710336 13.3767
2004-05-14 06:44:14 51°19.274 2°52.822 18.196145 4.12922 31.707626 13.275571
2004-05-14 06:44:20 51°19.296 2°52.83 18.189543 4.12922 31.708202 13.309281
2004-05-14 06:44:25 51°19.314 2°52.836 18.193363 4.129115 31.707299 13.34299
2004-05-14 06:44:29 51°19.328 2°52.841 18.19029 4.129115 31.706723 13.34299
2004-05-14 06:44:34 51°19.346 2°52.848 18.19029 4.129115 31.706723 13.34299
2004-05-14 06:44:38 51°19.36 2°52.853 18.187051 4.129431 31.708857 13.275571
2004-05-14 06:44:45 51°19.385 2°52.862 18.202207 4.128798 31.70459 13.34299
2004-05-14 06:44:48 51°19.396 2°52.865 18.192325 4.129115 31.707299 13.34299
2004-05-14 06:44:54 51°19.418 2°52.873 18.192325 4.129009 31.706396 13.309281
2004-05-14 06:44:59 51°19.436 2°52.88 18.194858 4.129326 31.70853 13.241862
2004-05-14 06:45:04 51°19.454 2°52.886 18.194858 4.129326 31.70853 13.241862
2004-05-14 06:45:10 51°19.476 2°52.893 18.198388 4.129115 31.707299 13.34299
2004-05-14 06:45:14 51°19.49 2°52.899 18.191038 4.12922 31.708778 13.309281
2004-05-14 06:45:19 51°19.508 2°52.905 18.195398 4.129326 31.709105 13.275571
2004-05-14 06:45:25 51°19.53 2°52.912 18.188006 4.129326 31.709105 13.275571
2004-05-14 06:45:30 51°19.548 2°52.918 18.198305 4.129009 31.707548 13.34299
2004-05-14 06:45:35 51°19.566 2°52.925 18.198305 4.129009 31.707548 13.34299
2004-05-14 06:45:40 51°19.584 2°52.931 18.198678 4.128904 31.706644 13.309281
2004-05-14 06:45:44 51°19.598 2°52.937 18.195896 4.129009 31.706396 13.309281
2004-05-14 06:45:49 51°19.616 2°52.943 18.210469 4.128587 31.703935 13.309281
2004-05-14 06:45:54 51°19.634 2°52.95 18.192159 4.129115 31.708451 13.275571
2004-05-14 06:45:59 51°19.652 2°52.957 18.193114 4.128904 31.706644 13.34299
2004-05-14 06:46:05 51°19.674 2°52.967 18.193114 4.128904 31.706644 13.34299
2004-05-14 06:46:09 51°19.688 2°52.974 18.1971 4.129009 31.707548 13.309281
2004-05-14 06:46:14 51°19.705 2°52.983 18.197931 4.129326 31.709681 13.309281
2004-05-14 06:46:20 51°19.726 2°52.993 18.203287 4.128904 31.706644 13.275571
2004-05-14 06:46:24 51°19.74 2°53.001 18.213873 4.128482 31.704183 13.34299
2004-05-14 06:46:29 51°19.758 2°53.01 18.213873 4.128482 31.704183 13.34299
2004-05-14 06:46:33 51°19.772 2°53.018 18.204865 4.128904 31.70722 13.309281
2004-05-14 06:46:40 51°19.797 2°53.031 18.212337 4.128693 31.705414 13.309281
2004-05-14 06:46:45 51°19.814 2°53.039 18.215949 4.128798 31.706317 13.309281
2004-05-14 06:46:48 51°19.825 2°53.045 18.201751 4.129009 31.708699 13.275571
2004-05-14 06:46:54 51°19.846 2°53.056 18.205155 4.128904 31.707796 13.309281
2004-05-14 06:47:00 51°19.867 2°53.067 18.205155 4.128904 31.707796 13.309281
2004-05-14 06:47:04 51°19.882 2°53.074 18.213707 4.128693 31.706565 13.309281
2004-05-14 06:47:09 51°19.899 2°53.083 18.219104 4.128482 31.704759 13.309281
2004-05-14 06:47:14 51°19.917 2°53.092 18.203412 4.129115 31.709602 13.34299
2004-05-14 06:47:20 51°19.938 2°53.103 18.217443 4.128587 31.705086 13.309281
2004-05-14 06:47:25 51°19.955 2°53.113 18.214828 4.128693 31.70599 13.241862
2004-05-14 06:47:29 51°19.969 2°53.12 18.214745 4.128798 31.706893 13.241862
2004-05-14 06:47:34 51°19.987 2°53.129 18.214745 4.128798 31.706893 13.241862
2004-05-14 06:47:40 51°20.008 2°53.14 18.214289 4.128693 31.706565 13.275571
2004-05-14 06:47:44 51°20.022 2°53.147 18.206069 4.128904 31.708372 13.275571
2004-05-14 06:47:50 51°20.044 2°53.157 18.223711 4.128377 31.705007 13.275571
2004-05-14 06:47:54 51°20.058 2°53.165 18.207688 4.128904 31.708948 13.241862
2004-05-14 06:48:00 51°20.079 2°53.175 18.223379 4.128377 31.705007 13.309281
2004-05-14 06:48:05 51°20.097 2°53.184 18.223379 4.128377 31.705007 13.309281
2004-05-14 06:48:10 51°20.114 2°53.193 18.213915 4.128693 31.707141 13.275571
2004-05-14 06:48:14 51°20.128 2°53.201 18.2113 4.128798 31.708044 13.275571
2004-05-14 06:48:20 51°20.15 2°53.212 18.222798 4.128482 31.705911 13.275571
2004-05-14 06:48:25 51°20.167 2°53.222 18.222175 4.128588 31.706814 13.275571
2004-05-14 06:48:30 51°20.185 2°53.231 18.220598 4.128904 31.708948 13.241862
2004-05-14 06:48:34 51°20.199 2°53.238 18.220598 4.128904 31.708948 13.241862
2004-05-14 06:48:40 51°20.221 2°53.249 18.218274 4.128693 31.707717 13.241862
2004-05-14 06:48:44 51°20.235 2°53.256 18.232468 4.128482 31.706486 13.309281
2004-05-14 06:48:50 51°20.256 2°53.267 18.223379 4.128482 31.706486 13.309281
2004-05-14 06:48:54 51°20.271 2°53.274 18.219311 4.128798 31.708044 13.241862
2004-05-14 06:49:00 51°20.292 2°53.285 18.222798 4.128588 31.70739 13.34299
2004-05-14 06:49:05 51°20.309 2°53.294 18.222798 4.128588 31.70739 13.34299
2004-05-14 06:49:10 51°20.327 2°53.304 18.229771 4.128377 31.705007 13.275571
2004-05-14 06:49:14 51°20.341 2°53.311 18.232095 4.128588 31.70739 13.275571
2004-05-14 06:49:18 51°20.355 2°53.318 18.229148 4.128588 31.707966 13.275571
2004-05-14 06:49:25 51°20.38 2°53.331 18.219934 4.128693 31.708293 13.208153
2004-05-14 06:49:30 51°20.398 2°53.34 18.24081 4.128271 31.705256 13.275571
2004-05-14 06:49:34 51°20.412 2°53.347 18.24081 4.128271 31.705256 13.275571
2004-05-14 06:49:40 51°20.434 2°53.358 18.2267 4.128693 31.708869 13.275571
2004-05-14 06:49:44 51°20.448 2°53.365 18.224209 4.128693 31.708869 13.208153
2004-05-14 06:49:50 51°20.469 2°53.376 18.231057 4.128693 31.709445 13.34299
2004-05-14 06:49:54 51°20.483 2°53.384 18.240893 4.128166 31.704352 13.241862
2004-05-14 06:49:58 51°20.497 2°53.391 18.230518 4.128377 31.706159 13.275571
2004-05-14 06:50:05 51°20.522 2°53.404 18.230518 4.128377 31.706159 13.275571
2004-05-14 06:50:10 51°20.54 2°53.414 18.229024 4.128482 31.706486 13.275571
2004-05-14 06:50:15 51°20.557 2°53.423 18.226451 4.128588 31.707966 13.275571
2004-05-14 06:50:19 51°20.571 2°53.43 18.226866 4.128588 31.707966 13.241862
2004-05-14 06:50:24 51°20.589 2°53.439 18.239606 4.128271 31.705832 13.241862
2004-05-14 06:50:28 51°20.604 2°53.447 18.239606 4.128271 31.705832 13.241862
2004-05-14 06:50:34 51°20.625 2°53.457 18.234626 4.128377 31.707311 13.275571
2004-05-14 06:50:39 51°20.643 2°53.467 18.232925 4.128377 31.707311 13.241862
2004-05-14 06:50:45 51°20.664 2°53.478 18.231721 4.128482 31.708214 13.241862
2004-05-14 06:50:49 51°20.678 2°53.485 18.234709 4.128482 31.708214 13.275571
2004-05-14 06:50:54 51°20.696 2°53.495 18.245001 4.128166 31.70608 13.275571
2004-05-14 06:51:00 51°20.718 2°53.506 18.236535 4.128377 31.707311 13.241862
2004-05-14 06:51:05 51°20.735 2°53.516 18.236535 4.128377 31.707311 13.241862
2004-05-14 06:51:08 51°20.746 2°53.522 18.24305 4.12806 31.704601 13.241862
2004-05-14 06:51:13 51°20.763 2°53.532 18.234834 4.128588 31.709117 13.241862
2004-05-14 06:51:20 51°20.788 2°53.545 18.260642 4.127744 31.703043 13.275571
2004-05-14 06:51:24 51°20.802 2°53.553 18.240353 4.128482 31.708214 13.241862
2004-05-14 06:51:30 51°20.824 2°53.565 18.239814 4.128271 31.706983 13.275571
2004-05-14 06:51:34 51°20.838 2°53.572 18.239814 4.128271 31.706983 13.275571
2004-05-14 06:51:40 51°20.859 2°53.584 18.24915 4.127849 31.70337 13.309281
2004-05-14 06:51:44 51°20.873 2°53.592 18.251681 4.128377 31.707311 13.174443
2004-05-14 06:51:50 51°20.893 2°53.603 18.244337 4.128271 31.707559 13.309281
2004-05-14 06:51:54 51°20.907 2°53.611 18.256701 4.127849 31.70337 13.275571
2004-05-14 06:52:00 51°20.929 2°53.622 18.239067 4.128377 31.707311 13.208153
2004-05-14 06:52:05 51°20.946 2°53.632 18.239067 4.128377 31.707311 13.208153
2004-05-14 06:52:10 51°20.964 2°53.641 18.243133 4.128166 31.706656 13.275571
2004-05-14 06:52:14 51°20.978 2°53.649 18.239233 4.128482 31.70879 13.241862
2004-05-14 06:52:20 51°20.999 2°53.66 18.252137 4.12806 31.705753 13.241862
2004-05-14 06:52:24 51°21.014 2°53.668 18.24276 4.128482 31.70879 13.208153
2004-05-14 06:52:30 51°21.035 2°53.679 18.254668 4.127639 31.703867 13.275571
2004-05-14 06:52:34 51°21.049 2°53.687 18.254668 4.127639 31.703867 13.275571
2004-05-14 06:52:40 51°21.07 2°53.698 18.247075 4.128377 31.709039 13.241862
2004-05-14 06:52:44 51°21.085 2°53.706 18.242387 4.127955 31.704849 13.241862
2004-05-14 06:52:49 51°21.102 2°53.716 18.252594 4.128166 31.707232 13.241862
2004-05-14 06:52:54 51°21.12 2°53.726 18.257863 4.12785 31.704522 13.241862
2004-05-14 06:53:00 51°21.142 2°53.737 18.251141 4.12806 31.706329 13.241862
2004-05-14 06:53:05 51°21.16 2°53.747 18.251141 4.12806 31.706329 13.241862
2004-05-14 06:53:10 51°21.178 2°53.756 18.255083 4.12806 31.706329 13.208153
2004-05-14 06:53:15 51°21.195 2°53.766 18.248071 4.127955 31.706001 13.241862
2004-05-14 06:53:20 51°21.213 2°53.775 18.264873 4.127744 31.704194 13.241862
2004-05-14 06:53:25 51°21.231 2°53.785 18.25695 4.12806 31.706905 13.208153
2004-05-14 06:53:29 51°21.245 2°53.792 18.25695 4.12806 31.706905 13.208153
2004-05-14 06:53:34 51°21.263 2°53.802 18.25612 4.12806 31.706905 13.241862
2004-05-14 06:53:40 51°21.285 2°53.813 18.260186 4.12785 31.705098 13.208153
2004-05-14 06:53:45 51°21.303 2°53.823 18.256784 4.127955 31.706001 13.208153
2004-05-14 06:53:50 51°21.321 2°53.832 18.270266 4.127639 31.704443 13.241862
2004-05-14 06:53:54 51°21.335 2°53.84 18.256659 4.127955 31.706577 13.241862
2004-05-14 06:53:59 51°21.353 2°53.849 18.260061 4.12806 31.706905 13.208153
2004-05-14 06:54:04 51°21.37 2°53.859 18.260061 4.12806 31.706905 13.208153
2004-05-14 06:54:08 51°21.385 2°53.866 18.257531 4.128271 31.708711 13.208153
2004-05-14 06:54:15 51°21.41 2°53.88 18.271717 4.127639 31.703867 13.208153
2004-05-14 06:54:20 51°21.428 2°53.889 18.263297 4.12785 31.705674 13.208153
2004-05-14 06:54:24 51°21.442 2°53.897 18.264998 4.127955 31.707153 13.241862
2004-05-14 06:54:30 51°21.463 2°53.909 18.262924 4.12806 31.707481 13.174443
2004-05-14 06:54:34 51°21.478 2°53.916 18.262924 4.12806 31.707481 13.174443
2004-05-14 06:54:39 51°21.495 2°53.926 18.269809 4.127639 31.704443 13.241862
2004-05-14 06:54:44 51°21.513 2°53.935 18.269312 4.12785 31.705674 13.208153
2004-05-14 06:54:50 51°21.535 2°53.947 18.274165 4.127744 31.705922 13.208153
2004-05-14 06:54:55 51°21.552 2°53.956 18.264624 4.127955 31.707153 13.140734
2004-05-14 06:55:00 51°21.57 2°53.965 18.269934 4.127744 31.705922 13.208153
2004-05-14 06:55:04 51°21.584 2°53.973 18.269934 4.127744 31.705922 13.208153
2004-05-14 06:55:09 51°21.602 2°53.983 18.268772 4.127955 31.707729 13.241862
2004-05-14 06:55:12 51°21.613 2°53.989 18.264044 4.12785 31.70625 13.208153
2004-05-14 06:55:20 51°21.641 2°54.005 18.278934 4.127639 31.705595 13.208153
2004-05-14 06:55:25 51°21.659 2°54.015 18.272215 4.12806 31.708633 13.208153
2004-05-14 06:55:30 51°21.677 2°54.024 18.274787 4.12785 31.706826 13.140734
2004-05-14 06:55:35 51°21.695 2°54.033 18.274787 4.12785 31.706826 13.140734
2004-05-14 06:55:39 51°21.709 2°54.041 18.274704 4.127744 31.706498 13.208153
2004-05-14 06:55:44 51°21.727 2°54.05 18.279722 4.127744 31.706498 13.208153
2004-05-14 06:55:54 51°21.762 2°54.069 18.279225 4.127639 31.705595 13.208153
2004-05-14 06:56:00 51°21.784 2°54.081 18.281879 4.127533 31.704115 13.208153
2004-05-14 06:56:05 51°21.802 2°54.09 18.281879 4.127533 31.704115 13.208153
2004-05-14 06:56:10 51°21.819 2°54.099 18.286523 4.127428 31.704364 13.208153
2004-05-14 06:56:14 51°21.834 2°54.107 18.274621 4.127955 31.708305 13.208153
2004-05-14 06:56:19 51°21.852 2°54.117 18.281381 4.127744 31.706498 13.174443
2004-05-14 06:56:24 51°21.869 2°54.126 18.290795 4.127322 31.703461 13.241862
2004-05-14 06:56:30 51°21.891 2°54.138 18.29096 4.127533 31.705267 13.208153
2004-05-14 06:56:33 51°21.901 2°54.144 18.29096 4.127533 31.705267 13.208153
2004-05-14 06:56:40 51°21.926 2°54.157 18.286275 4.127639 31.706171 13.140734
2004-05-14 06:56:44 51°21.941 2°54.165 18.280718 4.127533 31.705267 13.174443
2004-05-14 06:56:49 51°21.958 2°54.174 18.282501 4.127744 31.706498 13.174443
2004-05-14 06:56:54 51°21.976 2°54.184 18.287809 4.127533 31.705843 13.208153
2004-05-14 06:57:00 51°21.998 2°54.195 18.285321 4.127533 31.705843 13.140734
2004-05-14 06:57:05 51°22.016 2°54.205 18.285321 4.127533 31.705843 13.140734
2004-05-14 06:57:08 51°22.026 2°54.21 18.294402 4.127322 31.704613 13.174443
2004-05-14 06:57:14 51°22.048 2°54.222 18.283372 4.127744 31.70765 13.174443
2004-05-14 06:57:20 51°22.069 2°54.234 18.284906 4.127744 31.70765 13.174443
2004-05-14 06:57:24 51°22.084 2°54.241 18.305596 4.127006 31.702478 13.174443
2004-05-14 06:57:29 51°22.102 2°54.251 18.287187 4.127639 31.707323 13.174443
2004-05-14 06:57:34 51°22.12 2°54.26 18.287187 4.127639 31.707323 13.174443
2004-05-14 06:57:40 51°22.141 2°54.272 18.294112 4.127322 31.704037 13.208153
2004-05-14 06:57:44 51°22.155 2°54.28 18.289509 4.127639 31.706747 13.174443
2004-05-14 06:57:50 51°22.177 2°54.291 18.305389 4.127217 31.703709 13.174443
2004-05-14 06:57:55 51°22.195 2°54.301 18.291251 4.127744 31.708226 13.140734
2004-05-14 06:57:59 51°22.209 2°54.309 18.292909 4.127533 31.706419 13.208153
2004-05-14 06:58:05 51°22.23 2°54.32 18.292909 4.127533 31.706419 13.208153
2004-05-14 06:58:10 51°22.248 2°54.33 18.294236 4.127428 31.706092 13.140734
2004-05-14 06:58:14 51°22.262 2°54.338 18.290338 4.127744 31.708802 13.174443
2004-05-14 06:58:20 51°22.284 2°54.35 18.303731 4.127217 31.704285 13.208153
2004-05-14 06:58:24 51°22.298 2°54.357 18.298092 4.127533 31.706995 13.140734
2004-05-14 06:58:29 51°22.316 2°54.367 18.29718 4.127322 31.705765 13.174443
2004-05-14 06:58:34 51°22.334 2°54.377 18.29718 4.127322 31.705765 13.174443
2004-05-14 06:58:39 51°22.352 2°54.386 18.303358 4.127322 31.705765 13.208153
2004-05-14 06:58:44 51°22.37 2°54.396 18.297719 4.127639 31.707899 13.140734
2004-05-14 06:58:50 51°22.391 2°54.408 18.299419 4.127533 31.706995 13.174443
2004-05-14 06:58:54 51°22.405 2°54.416 18.314302 4.127112 31.703382 13.140734
2004-05-14 06:59:00 51°22.427 2°54.427 18.30199 4.127428 31.706668 13.174443
2004-05-14 06:59:04 51°22.441 2°54.435 18.30199 4.127428 31.706668 13.174443
2004-05-14 06:59:08 51°22.455 2°54.443 18.304228 4.127428 31.706668 13.140734
2004-05-14 06:59:14 51°22.476 2°54.454 18.300248 4.127533 31.706995 13.140734
2004-05-14 06:59:20 51°22.497 2°54.465 18.315504 4.126901 31.702727 13.140734
2004-05-14 06:59:24 51°22.511 2°54.473 18.303772 4.127955 31.711186 13.140734
2004-05-14 06:59:30 51°22.532 2°54.485 18.305389 4.127217 31.704861 13.140734
2004-05-14 06:59:35 51°22.55 2°54.494 18.305389 4.127217 31.704861 13.140734
2004-05-14 06:59:40 51°22.568 2°54.504 18.313266 4.127322 31.706341 13.174443
2004-05-14 06:59:44 51°22.582 2°54.511 18.31024 4.127428 31.707244 13.107024
2004-05-14 06:59:48 51°22.596 2°54.518 18.315504 4.127112 31.704534 13.140734
2004-05-14 06:59:54 51°22.617 2°54.529 18.311525 4.126901 31.703303 13.174443
2004-05-14 07:00:00 51°22.638 2°54.541 18.318281 4.127112 31.70511 13.174443
2004-05-14 07:00:05 51°22.656 2°54.551 18.318281 4.127112 31.70511 13.174443
2004-05-14 07:00:09 51°22.67 2°54.558 18.313805 4.127217 31.706013 13.107024
2004-05-14 07:00:15 51°22.691 2°54.569 18.315297 4.127112 31.70511 13.140734
2004-05-14 07:00:20 51°22.709 2°54.578 18.317701 4.127217 31.706589 13.073315
2004-05-14 07:00:24 51°22.723 2°54.586 18.305762 4.127533 31.708724 13.140734
2004-05-14 07:00:28 51°22.737 2°54.594 18.32512 4.126901 31.704455 13.140734
2004-05-14 07:00:34 51°22.758 2°54.605 18.32512 4.126901 31.704455 13.140734
2004-05-14 07:00:40 51°22.78 2°54.617 18.315794 4.127112 31.70511 13.107024
2004-05-14 07:00:45 51°22.797 2°54.626 18.327524 4.127006 31.704206 13.140734
2004-05-14 07:00:50 51°22.815 2°54.635 18.318654 4.127217 31.706589 13.174443
2004-05-14 07:00:55 51°22.833 2°54.644 18.321017 4.126901 31.703879 13.140734
2004-05-14 07:01:00 51°22.85 2°54.654 18.321017 4.126901 31.703879 13.140734
2004-05-14 07:01:05 51°22.868 2°54.663 18.31567 4.127533 31.708724 13.107024
2004-05-14 07:01:09 51°22.881 2°54.67 18.333077 4.126479 31.701993 13.208153
2004-05-14 07:01:15 51°22.902 2°54.682 18.325327 4.127217 31.706589 13.073315
2004-05-14 07:01:20 51°22.92 2°54.691 18.316499 4.127322 31.706917 13.073315
2004-05-14 07:01:24 51°22.934 2°54.699 18.323255 4.127217 31.706589 13.140734
2004-05-14 07:01:29 51°22.952 2°54.708 18.323255 4.127217 31.706589 13.140734
2004-05-14 07:01:34 51°22.969 2°54.718 18.328809 4.126795 31.703551 13.140734
2004-05-14 07:01:40 51°22.99 2°54.73 18.325203 4.127639 31.710203 13.073315
2004-05-14 07:01:45 51°23.007 2°54.74 18.326322 4.127112 31.706262 13.073315
2004-05-14 07:01:48 51°23.018 2°54.745 18.329057 4.127006 31.705934 13.140734
2004-05-14 07:01:53 51°23.035 2°54.756 18.323794 4.126901 31.705031 13.140734
2004-05-14 07:02:00 51°23.059 2°54.772 18.325576 4.127112 31.706838 13.107024
2004-05-14 07:02:04 51°23.072 2°54.782 18.325576 4.127112 31.706838 13.107024
2004-05-14 07:02:08 51°23.086 2°54.792 18.324747 4.127322 31.708069 13.039606
2004-05-14 07:02:14 51°23.106 2°54.807 18.346834 4.126374 31.701089 13.107024
2004-05-14 07:02:20 51°23.126 2°54.822 18.32798 4.127428 31.709549 13.107024
2004-05-14 07:02:25 51°23.143 2°54.835 18.341282 4.12669 31.7038 13.107024
2004-05-14 07:02:30 51°23.16 2°54.848 18.347663 4.126479 31.702569 13.107024
2004-05-14 07:02:34 51°23.173 2°54.858 18.347663 4.126479 31.702569 13.107024
2004-05-14 07:02:40 51°23.193 2°54.873 18.328519 4.127533 31.710452 13.039606
2004-05-14 07:02:44 51°23.207 2°54.884 18.347207 4.126374 31.701665 13.174443
2004-05-14 07:02:49 51°23.223 2°54.896 18.336931 4.127112 31.707414 13.073315
2004-05-14 07:02:54 51°23.24 2°54.909 18.337967 4.12669 31.7038 13.073315
2004-05-14 07:02:59 51°23.257 2°54.921 18.338174 4.126901 31.705607 13.039606
2004-05-14 07:03:04 51°23.274 2°54.934 18.338174 4.126901 31.705607 13.039606
2004-05-14 07:03:10 51°23.294 2°54.95 18.337221 4.126901 31.706183 13.073315
2004-05-14 07:03:15 51°23.311 2°54.962 18.335647 4.127322 31.709221 13.039606
2004-05-14 07:03:20 51°23.328 2°54.975 18.339625 4.127112 31.707414 13.039606
2004-05-14 07:03:24 51°23.342 2°54.985 18.353256 4.126479 31.702569 13.073315
2004-05-14 07:03:29 51°23.359 2°54.998 18.340744 4.127006 31.707087 13.107024
2004-05-14 07:03:34 51°23.376 2°55.011 18.340744 4.127006 31.707087 13.107024
2004-05-14 07:03:40 51°23.396 2°55.026 18.339749 4.126795 31.705279 13.107024
2004-05-14 07:03:45 51°23.413 2°55.039 18.35164 4.126479 31.702569 13.073315
2004-05-14 07:03:49 51°23.427 2°55.049 18.342111 4.127217 31.708894 13.107024
2004-05-14 07:03:54 51°23.444 2°55.062 18.34584 4.12669 31.704952 13.039606
2004-05-14 07:04:00 51°23.464 2°55.077 18.347 4.127006 31.707087 13.005896
2004-05-14 07:04:04 51°23.477 2°55.088 18.347 4.127006 31.707087 13.005896
2004-05-14 07:04:10 51°23.497 2°55.103 18.345799 4.126901 31.706759 13.005896
2004-05-14 07:04:14 51°23.511 2°55.113 18.349528 4.126795 31.707008 13.140734
2004-05-14 07:04:20 51°23.531 2°55.128 18.344266 4.12669 31.705528 13.107024
2004-05-14 07:04:24 51°23.545 2°55.139 18.348036 4.12669 31.704952 13.073315
2004-05-14 07:04:28 51°23.558 2°55.149 18.347124 4.12669 31.704952 13.039606
2004-05-14 07:04:34 51°23.579 2°55.164 18.347124 4.12669 31.704952 13.039606
2004-05-14 07:04:40 51°23.599 2°55.179 18.35077 4.126795 31.706432 13.039606
2004-05-14 07:04:44 51°23.613 2°55.189 18.349155 4.126901 31.707335 13.005896
2004-05-14 07:04:50 51°23.633 2°55.205 18.350895 4.126584 31.705201 13.005896
2004-05-14 07:04:54 51°23.647 2°55.215 18.351475 4.12669 31.705528 13.005896
2004-05-14 07:05:00 51°23.667 2°55.23 18.364193 4.126268 31.703066 13.107024
2004-05-14 07:05:04 51°23.681 2°55.241 18.364193 4.126268 31.703066 13.107024
2004-05-14 07:05:10 51°23.702 2°55.256 18.354582 4.127006 31.708239 13.039606
2004-05-14 07:05:14 51°23.715 2°55.266 18.357275 4.126479 31.704873 13.073315
2004-05-14 07:05:20 51°23.735 2°55.282 18.354499 4.126584 31.705201 13.039606
2004-05-14 07:05:25 51°23.753 2°55.294 18.366347 4.126374 31.70397 13.073315
2004-05-14 07:05:29 51°23.766 2°55.304 18.366347 4.126374 31.70397 13.073315
2004-05-14 07:05:35 51°23.787 2°55.319 18.369992 4.126479 31.704297 13.005896
2004-05-14 07:05:39 51°23.8 2°55.33 18.361873 4.126268 31.703642 13.073315
2004-05-14 07:05:45 51°23.821 2°55.344 18.364648 4.12669 31.70668 13.039606
2004-05-14 07:05:49 51°23.835 2°55.355 18.359677 4.126584 31.705777 13.039606
2004-05-14 07:05:55 51°23.855 2°55.37 18.364441 4.126584 31.706353 13.039606
2004-05-14 07:06:00 51°23.872 2°55.382 18.371193 4.126374 31.70397 13.005896
2004-05-14 07:06:04 51°23.886 2°55.393 18.371193 4.126374 31.70397 13.005896
2004-05-14 07:06:08 51°23.9 2°55.403 18.36527 4.126584 31.705201 13.005896
2004-05-14 07:06:14 51°23.92 2°55.419 18.364814 4.126479 31.704873 13.005896
2004-05-14 07:06:19 51°23.937 2°55.432 18.365352 4.126901 31.707912 12.972187
2004-05-14 07:06:24 51°23.954 2°55.445 18.368003 4.126479 31.705449 13.039606
2004-05-14 07:06:29 51°23.971 2°55.458 18.366719 4.126795 31.707584 13.039606
2004-05-14 07:06:34 51°23.988 2°55.471 18.366719 4.126795 31.707584 13.039606
2004-05-14 07:06:40 51°24.009 2°55.487 18.378979 4.126057 31.702411 13.073315
2004-05-14 07:06:45 51°24.026 2°55.499 18.375956 4.126268 31.703642 13.039606
2004-05-14 07:06:49 51°24.039 2°55.51 18.366885 4.126795 31.707584 12.972187
2004-05-14 07:06:55 51°24.06 2°55.525 18.378979 4.126163 31.703315 13.005896
2004-05-14 07:07:00 51°24.077 2°55.538 18.374962 4.126584 31.706353 13.073315
2004-05-14 07:07:04 51°24.091 2°55.548 18.374962 4.126584 31.706353 13.073315
2004-05-14 07:07:10 51°24.112 2°55.563 18.378358 4.126163 31.703315 13.039606
2004-05-14 07:07:14 51°24.126 2°55.573 18.377778 4.126479 31.705449 13.005896
2004-05-14 07:07:20 51°24.146 2°55.588 18.378896 4.126163 31.703891 13.039606
2004-05-14 07:07:25 51°24.163 2°55.601 18.378523 4.126479 31.706602 13.005896
2004-05-14 07:07:29 51°24.177 2°55.611 18.377529 4.126268 31.703642 13.005896
2004-05-14 07:07:34 51°24.195 2°55.624 18.377529 4.126268 31.703642 13.005896
2004-05-14 07:07:40 51°24.215 2°55.639 18.377529 4.126479 31.706026 13.005896
2004-05-14 07:07:45 51°24.233 2°55.652 18.389042 4.126057 31.702987 13.039606
2004-05-14 07:07:48 51°24.243 2°55.659 18.381836 4.126163 31.704467 13.073315
2004-05-14 07:07:54 51°24.264 2°55.675 18.381505 4.126374 31.706274 13.073315
2004-05-14 07:08:00 51°24.284 2°55.69 18.384155 4.126057 31.702987 13.005896
2004-05-14 07:08:04 51°24.298 2°55.701 18.384155 4.126057 31.702987 13.005896
2004-05-14 07:08:10 51°24.319 2°55.716 18.383244 4.126584 31.706929 12.972187
2004-05-14 07:08:14 51°24.333 2°55.726 18.390532 4.126163 31.703891 12.972187
2004-05-14 07:08:20 51°24.353 2°55.742 18.387468 4.126163 31.705043 13.073315
2004-05-14 07:08:24 51°24.367 2°55.752 18.387303 4.126374 31.705698 13.005896
2004-05-14 07:08:28 51°24.381 2°55.761 18.397695 4.125636 31.699948 13.005896
2004-05-14 07:08:34 51°24.402 2°55.777 18.397695 4.125636 31.699948 13.005896
2004-05-14 07:08:40 51°24.423 2°55.792 18.383493 4.126374 31.706851 13.005896
2004-05-14 07:08:44 51°24.436 2°55.803 18.396702 4.125741 31.700852 13.039606
2004-05-14 07:08:50 51°24.457 2°55.818 18.388669 4.126268 31.705371 13.039606
2004-05-14 07:08:55 51°24.475 2°55.831 18.393307 4.126268 31.705947 12.938477
2004-05-14 07:09:00 51°24.492 2°55.844 18.395004 4.126268 31.705947 12.972187
2004-05-14 07:09:04 51°24.506 2°55.854 18.395004 4.126268 31.705947 12.972187
2004-05-14 07:09:10 51°24.527 2°55.869 18.397157 4.126057 31.704139 12.972187
2004-05-14 07:09:14 51°24.541 2°55.88 18.390615 4.126163 31.705043 13.005896
2004-05-14 07:09:20 51°24.562 2°55.895 18.402291 4.125952 31.703236 12.938477
2004-05-14 07:09:25 51°24.579 2°55.908 18.395956 4.126479 31.708331 12.972187
2004-05-14 07:09:30 51°24.597 2°55.921 18.392603 4.126268 31.705947 13.005896
2004-05-14 07:09:35 51°24.614 2°55.934 18.392603 4.126268 31.705947 13.005896
2004-05-14 07:09:39 51°24.628 2°55.944 18.406265 4.125741 31.702004 13.005896
2004-05-14 07:09:45 51°24.649 2°55.96 18.397116 4.126163 31.705043 13.005896
2004-05-14 07:09:49 51°24.663 2°55.971 18.398316 4.126163 31.705043 12.972187
2004-05-14 07:09:55 51°24.684 2°55.987 18.402664 4.125952 31.703236 13.005896
2004-05-14 07:10:00 51°24.702 2°56.001 18.407176 4.125952 31.703236 12.972187
2004-05-14 07:10:04 51°24.715 2°56.011 18.407176 4.125952 31.703236 12.972187
2004-05-14 07:10:08 51°24.729 2°56.022 18.399559 4.126163 31.705043 13.005896
2004-05-14 07:10:14 51°24.75 2°56.039 18.405975 4.126057 31.704716 13.005896
2004-05-14 07:10:20 51°24.771 2°56.056 18.417524 4.125636 31.701677 12.972187
2004-05-14 07:10:24 51°24.785 2°56.067 18.403699 4.126057 31.705292 12.972187
2004-05-14 07:10:28 51°24.799 2°56.078 18.402581 4.126374 31.708003 13.005896
2004-05-14 07:10:34 51°24.82 2°56.094 18.402581 4.126374 31.708003 13.005896
2004-05-14 07:10:40 51°24.84 2°56.11 18.423319 4.125319 31.699542 12.938477
2004-05-14 07:10:44 51°24.854 2°56.12 18.405147 4.126163 31.706196 12.972187
2004-05-14 07:10:49 51°24.871 2°56.133 18.404527 4.125952 31.704388 12.972187
2004-05-14 07:10:54 51°24.889 2°56.146 18.411523 4.125952 31.704388 12.972187
2004-05-14 07:11:00 51°24.91 2°56.162 18.411688 4.125952 31.704964 12.972187
2004-05-14 07:11:04 51°24.924 2°56.172 18.411688 4.125952 31.704964 12.972187
2004-05-14 07:11:08 51°24.938 2°56.183 18.411688 4.126268 31.707676 12.972187
2004-05-14 07:11:14 51°24.959 2°56.199 18.420091 4.12553 31.701349 12.972187
2004-05-14 07:11:20 51°24.979 2°56.216 18.411812 4.126163 31.706196 12.904768
2004-05-14 07:11:25 51°24.996 2°56.23 18.410612 4.126057 31.705292 12.938477
2004-05-14 07:11:29 51°25.01 2°56.241 18.418808 4.125846 31.704637 13.005896
2004-05-14 07:11:34 51°25.027 2°56.254 18.418808 4.125846 31.704637 13.005896
2004-05-14 07:11:40 51°25.047 2°56.27 18.421374 4.125952 31.704964 12.972187
2004-05-14 07:11:45 51°25.064 2°56.283 18.325866 4.129537 31.716671 14.691366
2004-05-14 07:11:48 51°25.075 2°56.291 14.018821 4.075239 31.40716 15.63523
2004-05-14 07:11:54 51°25.095 2°56.306 13.0572 3.95147 30.37071 18.129725
2004-05-14 07:12:00 51°25.116 2°56.322 12.51014 3.774691 28.064351 20.489383
2004-05-14 07:12:04 51°25.129 2°56.332 12.51014 3.774691 28.064351 20.489383
2004-05-14 07:12:09 51°25.146 2°56.345 12.378178 3.914556 28.994346 15.500392
2004-05-14 07:12:14 51°25.164 2°56.358 12.30526 3.90614 29.857782 15.63523
2004-05-14 07:12:20 51°25.184 2°56.374 12.245091 2.876754 22.120351 21.433247
2004-05-14 07:12:24 51°25.197 2°56.384 12.12786 3.920085 31.881678 24.736768
2004-05-14 07:12:29 51°25.215 2°56.397 12.060485 3.919042 32.575428 29.860597
2004-05-14 07:12:34 51°25.231 2°56.41 12.060485 3.919042 32.575428 29.860597
2004-05-14 07:12:40 51°25.252 2°56.425 12.023702 3.89533 32.78305 33.804597
2004-05-14 07:12:45 51°25.268 2°56.438 11.992313 3.875727 32.834751 35.557486
2004-05-14 07:12:50 51°25.285 2°56.451 11.977342 3.855492 32.815002 37.411503
2004-05-14 07:12:55 51°25.302 2°56.464 11.985169 3.844848 32.845063 38.15311
2004-05-14 07:13:00 51°25.318 2°56.477 11.955583 3.837892 32.879874 38.557623
2004-05-14 07:13:04 51°25.332 2°56.488 11.955583 3.837892 32.879874 38.557623
2004-05-14 07:13:09 51°25.349 2°56.5 11.951031 3.833256 32.915832 38.591332
2004-05-14 07:13:15 51°25.369 2°56.516 11.952214 3.821557 32.8561 38.355366
2004-05-14 07:13:20 51°25.386 2°56.528 11.941514 3.807645 32.774336 37.310375
2004-05-14 07:13:24 51°25.399 2°56.538 11.937917 3.807645 32.797018 36.164255
2004-05-14 07:13:30 51°25.419 2°56.553 11.942516 3.813337 32.872305 34.984426
2004-05-14 07:13:34 51°25.433 2°56.563 11.942516 3.813337 32.872305 34.984426
2004-05-14 07:13:39 51°25.449 2°56.576 11.929719 3.810175 32.863333 33.332665
2004-05-14 07:13:45 51°25.469 2°56.592 11.951031 3.806381 32.843445 31.444939
2004-05-14 07:13:48 51°25.479 2°56.6 11.936095 3.805116 32.841645 30.029144
2004-05-14 07:13:53 51°25.496 2°56.613 11.937735 3.802587 32.830446 28.714477
2004-05-14 07:14:00 51°25.519 2°56.63 11.917193 3.799214 32.798021 26.152563
2004-05-14 07:14:04 51°25.532 2°56.641 11.917193 3.799214 32.798021 26.152563
2004-05-14 07:14:10 51°25.552 2°56.656 11.912 3.79816 32.797546 24.804187
2004-05-14 07:14:14 51°25.566 2°56.666 11.90102 3.796263 32.782063 22.91646
2004-05-14 07:14:19 51°25.582 2°56.68 11.90266 3.794261 32.767634 21.635503
2004-05-14 07:14:24 51°25.599 2°56.693 11.909768 3.792364 32.755595 20.084871
2004-05-14 07:14:30 51°25.619 2°56.708 11.903025 3.791942 32.763955 19.815195
2004-05-14 07:14:35 51°25.635 2°56.721 11.903025 3.791942 32.763955 19.815195
2004-05-14 07:14:40 51°25.652 2°56.733 11.902296 3.791943 32.777069 20.725349
2004-05-14 07:14:44 51°25.665 2°56.744 11.91118 3.791099 32.777241 21.163571
2004-05-14 07:14:48 51°25.679 2°56.754 11.896099 3.790151 32.775016 20.792768
2004-05-14 07:14:54 51°25.699 2°56.769 11.909904 3.7833 32.707682 20.152289
2004-05-14 07:15:00 51°25.719 2°56.784 11.904665 3.781403 32.690111 19.073589
2004-05-14 07:15:04 51°25.732 2°56.794 11.904665 3.781403 32.690111 19.073589
2004-05-14 07:15:10 51°25.752 2°56.81 11.896144 3.781403 32.692178 18.028597
2004-05-14 07:15:13 51°25.761 2°56.818 11.895871 3.779084 32.672615 17.185862
2004-05-14 07:15:20 51°25.785 2°56.836 11.891952 3.78309 32.715997 16.241999
2004-05-14 07:15:25 51°25.801 2°56.849 11.890631 3.782036 32.705159 15.432973
2004-05-14 07:15:29 51°25.814 2°56.859 11.898468 3.778136 32.669683 15.02846
2004-05-14 07:15:35 51°25.834 2°56.875 11.898468 3.778136 32.669683 15.02846
2004-05-14 07:15:40 51°25.851 2°56.888 11.885663 3.778874 32.678164 14.4554
2004-05-14 07:15:44 51°25.864 2°56.898 11.875818 3.781298 32.706332 14.050888
2004-05-14 07:15:50 51°25.884 2°56.913 11.882336 3.77529 32.653995 13.612665
2004-05-14 07:15:52 51°25.891 2°56.918 11.876548 3.775817 32.661825 13.3767
2004-05-14 07:15:59 51°25.914 2°56.936 11.875681 3.768229 32.590133 13.275571
2004-05-14 07:16:04 51°25.931 2°56.949 11.875681 3.768229 32.590133 13.275571
2004-05-14 07:16:10 51°25.95 2°56.965 11.872582 3.780244 32.706529 13.410409
2004-05-14 07:16:15 51°25.967 2°56.978 11.872582 3.780666 32.716803 13.208153
2004-05-14 07:16:20 51°25.984 2°56.991 11.877095 3.780139 32.712416 13.309281
2004-05-14 07:16:24 51°25.997 2°57.002 11.868206 3.780666 32.722327 13.208153
2004-05-14 07:16:30 51°26.016 2°57.018 11.867795 3.780244 32.722409 13.107024
2004-05-14 07:16:34 51°26.029 2°57.029 11.867795 3.780244 32.722409 13.107024
2004-05-14 07:16:40 51°26.049 2°57.047 11.865197 3.780561 32.728911 13.174443
2004-05-14 07:16:45 51°26.065 2°57.063 11.871123 3.780139 32.727611 13.073315
2004-05-14 07:16:48 51°26.074 2°57.072 11.868297 3.780139 32.729684 13.073315
2004-05-14 07:16:53 51°26.09 2°57.088 11.869391 3.780455 32.734115 13.107024
2004-05-14 07:17:00 51°26.111 2°57.114 11.862735 3.78035 32.734481 13.275571
2004-05-14 07:17:04 51°26.122 2°57.129 11.862735 3.78035 32.734481 13.275571
2004-05-14 07:17:09 51°26.136 2°57.15 11.861413 3.779718 32.727693 13.073315
2004-05-14 07:17:14 51°26.15 2°57.17 11.866838 3.780771 32.739237 13.174443
2004-05-14 07:17:19 51°26.163 2°57.191 11.849148 3.780245 32.735539 13.140734
2004-05-14 07:17:24 51°26.177 2°57.212 11.867567 3.781088 32.745052 13.241862
2004-05-14 07:17:30 51°26.192 2°57.237 11.85731 3.780982 32.745419 13.410409
2004-05-14 07:17:35 51°26.206 2°57.258 11.85731 3.780982 32.745419 13.410409
2004-05-14 07:17:40 51°26.219 2°57.279 11.857173 3.779191 32.730216 13.814922
2004-05-14 07:17:44 51°26.23 2°57.296 11.850424 3.779612 32.738431 13.949759
2004-05-14 07:17:48 51°26.241 2°57.313 11.855942 3.778875 32.734082 13.983469
2004-05-14 07:17:54 51°26.257 2°57.338 11.849512 3.780561 32.752422 14.185725
2004-05-14 07:18:00 51°26.273 2°57.363 11.848783 3.780034 32.748723 14.354272
2004-05-14 07:18:05 51°26.287 2°57.383 11.848783 3.780034 32.748723 14.354272
2004-05-14 07:18:10 51°26.3 2°57.404 11.849558 3.780983 32.757873 14.623947
2004-05-14 07:18:13 51°26.308 2°57.417 11.858814 3.779191 32.742666 14.556529
2004-05-14 07:18:20 51°26.327 2°57.445 11.850516 3.780245 32.756986 14.758785
2004-05-14 07:18:25 51°26.341 2°57.466 11.849148 3.780139 32.757354 14.590238
2004-05-14 07:18:29 51°26.352 2°57.482 11.84135 3.779823 32.754304 14.556529
2004-05-14 07:18:35 51°26.368 2°57.507 11.84135 3.779823 32.754304 14.556529
2004-05-14 07:18:40 51°26.382 2°57.528 11.850424 3.779929 32.75532 14.522819
2004-05-14 07:18:44 51°26.393 2°57.545 11.843128 3.776451 32.721766 14.4554
2004-05-14 07:18:50 51°26.409 2°57.569 11.847734 3.778664 32.745195 14.522819
2004-05-14 07:18:52 51°26.415 2°57.578 11.847962 3.78035 32.761465 14.522819
2004-05-14 07:18:59 51°26.434 2°57.606 11.845682 3.779718 32.759519 14.522819
2004-05-14 07:19:04 51°26.447 2°57.627 11.845682 3.779718 32.759519 14.522819
2004-05-14 07:19:10 51°26.464 2°57.651 11.854619 3.780667 32.76798 14.623947
2004-05-14 07:19:15 51°26.477 2°57.673 11.846548 3.779191 32.755818 14.961042
2004-05-14 07:19:20 51°26.491 2°57.693 11.843219 3.779402 32.759238 14.994751
2004-05-14 07:19:24 51°26.502 2°57.709 11.843356 3.780983 32.775881 15.230717
2004-05-14 07:19:30 51°26.519 2°57.734 11.851017 3.780877 32.774171 15.399264
2004-05-14 07:19:34 51°26.53 2°57.75 11.851017 3.780877 32.774171 15.399264
2004-05-14 07:19:40 51°26.546 2°57.774 11.842444 3.781194 32.777223 15.432973
2004-05-14 07:19:45 51°26.56 2°57.794 11.856124 3.781194 32.779302 15.938614
2004-05-14 07:19:50 51°26.573 2°57.815 11.84746 3.78151 32.782354 16.376836
2004-05-14 07:19:54 51°26.585 2°57.831 11.84778 3.783091 32.800389 16.376836
2004-05-14 07:20:00 51°26.601 2°57.856 11.848327 3.783512 32.802378 16.579093
2004-05-14 07:20:04 51°26.612 2°57.872 11.848327 3.783512 32.802378 16.579093
2004-05-14 07:20:09 51°26.625 2°57.893 11.843083 3.783407 32.80136 16.579093
2004-05-14 07:20:15 51°26.642 2°57.918 11.841806 3.783723 32.803025 16.545383
2004-05-14 07:20:20 51°26.656 2°57.938 11.843356 3.784461 32.808759 16.275708
2004-05-14 07:20:25 51°26.67 2°57.958 11.845819 3.784566 32.811164 15.938614
2004-05-14 07:20:30 51°26.683 2°57.979 11.840209 3.784672 32.81357 15.567811
2004-05-14 07:20:34 51°26.695 2°57.995 11.840209 3.784672 32.81357 15.567811
2004-05-14 07:20:40 51°26.711 2°58.019 11.836515 3.785093 32.820416 15.432973
2004-05-14 07:20:44 51°26.722 2°58.036 11.835786 3.785199 32.821433 15.264426
2004-05-14 07:20:48 51°26.733 2°58.052 11.843812 3.785304 32.823145 15.163298
2004-05-14 07:20:55 51°26.753 2°58.08 11.84135 3.785199 32.82421 15.197007
2004-05-14 07:21:00 51°26.767 2°58.101 11.845545 3.785515 32.827957 15.668939
2004-05-14 07:21:04 51°26.777 2°58.118 11.845545 3.785515 32.827957 15.668939
2004-05-14 07:21:08 51°26.788 2°58.134 11.851747 3.78541 32.830412 15.534101
2004-05-14 07:21:14 51°26.805 2°58.158 11.858449 3.784145 32.820281 15.567811
2004-05-14 07:21:20 51°26.822 2°58.182 11.856443 3.777505 32.754088 15.63523
2004-05-14 07:21:25 51°26.835 2°58.203 11.853708 3.779613 32.773052 15.837486
2004-05-14 07:21:30 51°26.849 2°58.223 11.858267 3.78562 32.828975 15.871195
2004-05-14 07:21:35 51°26.863 2°58.243 11.858267 3.78562 32.828975 15.871195
2004-05-14 07:21:40 51°26.877 2°58.264 11.84249 3.781826 32.790953 15.972324
2004-05-14 07:21:44 51°26.888 2°58.28 11.83688 3.779929 32.769173 15.871195
2004-05-14 07:21:49 51°26.902 2°58.3 11.825021 3.78014 32.769129 15.63523
2004-05-14 07:21:55 51°26.918 2°58.325 11.809418 3.781194 32.777916 15.534101
2004-05-14 07:21:59 51°26.93 2°58.341 11.814893 3.781615 32.784065 15.567811
2004-05-14 07:22:05 51°26.946 2°58.365 11.814893 3.781615 32.784065 15.567811
2004-05-14 07:22:10 51°26.96 2°58.385 11.807593 3.788782 32.857424 16.477965
2004-05-14 07:22:15 51°26.974 2°58.406 11.805859 3.789625 32.871128 17.994888
2004-05-14 07:22:19 51°26.985 2°58.423 11.80303 3.790996 32.894105 20.860187
2004-05-14 07:22:24 51°26.999 2°58.443 11.803532 3.792577 32.919134 23.388392
2004-05-14 07:22:30 51°27.015 2°58.467 11.797189 3.791944 32.916506 24.096289
2004-05-14 07:22:34 51°27.026 2°58.483 11.797189 3.791944 32.916506 24.096289
2004-05-14 07:22:40 51°27.043 2°58.507 11.804764 3.791523 32.915915 23.961452
2004-05-14 07:22:44 51°27.054 2°58.523 11.807456 3.790258 32.907172 23.017589
2004-05-14 07:22:50 51°27.071 2°58.547 11.812065 3.789837 32.903793 21.905178
2004-05-14 07:22:54 51°27.082 2°58.563 11.808825 3.78931 32.901485 21.197281
2004-05-14 07:23:00 51°27.098 2°58.587 11.812521 3.788888 32.898802 19.781486
2004-05-14 07:23:04 51°27.11 2°58.603 11.812521 3.788888 32.898802 19.781486
2004-05-14 07:23:09 51°27.123 2°58.623 11.820824 3.788256 32.891991 19.444392
2004-05-14 07:23:15 51°27.14 2°58.647 11.825523 3.783408 32.845121 18.669076
2004-05-14 07:23:20 51°27.153 2°58.667 11.825386 3.787096 32.877301 17.994888
2004-05-14 07:23:25 51°27.167 2°58.688 11.829856 3.785199 32.858266 17.691503
2004-05-14 07:23:29 51°27.179 2°58.703 11.837382 3.785199 32.856874 17.624084
2004-05-14 07:23:34 51°27.192 2°58.723 11.837382 3.785199 32.856874 17.624084
2004-05-14 07:23:40 51°27.209 2°58.748 11.83948 3.783724 32.839832 17.489247
2004-05-14 07:23:44 51°27.22 2°58.764 11.84249 3.784672 32.846912 17.388118
2004-05-14 07:23:50 51°27.237 2°58.787 11.844542 3.783513 32.832233 17.28699
2004-05-14 07:23:55 51°27.251 2°58.808 11.841441 3.786148 32.855608 17.253281
2004-05-14 07:24:00 51°27.265 2°58.827 11.829765 3.78815 32.870088 17.253281
2004-05-14 07:24:04 51°27.276 2°58.844 11.829765 3.78815 32.870088 17.253281
2004-05-14 07:24:08 51°27.287 2°58.86 11.818452 3.785199 32.838796 17.219571
2004-05-14 07:24:13 51°27.301 2°58.88 11.805266 3.788782 32.872024 16.848768
2004-05-14 07:24:20 51°27.32 2°58.909 11.806133 3.784988 32.833981 16.74764
2004-05-14 07:24:25 51°27.334 2°58.929 11.800703 3.788045 32.863506 16.477965
2004-05-14 07:24:30 51°27.348 2°58.949 11.785779 3.787623 32.860824 16.309418
2004-05-14 07:24:35 51°27.362 2°58.969 11.785779 3.787623 32.860824 16.309418
2004-05-14 07:24:40 51°27.376 2°58.989 11.780575 3.781405 32.811867 16.039742
2004-05-14 07:24:44 51°27.387 2°59.005 11.774961 3.784461 32.848353 16.444255
2004-05-14 07:24:49 51°27.401 2°59.025 11.76825 3.779929 32.810113 16.815059
2004-05-14 07:24:55 51°27.418 2°59.05 11.768113 3.779929 32.812198 17.185862
2004-05-14 07:24:59 51°27.429 2°59.066 11.765054 3.78267 32.849121 17.051024
2004-05-14 07:25:05 51°27.446 2°59.09 11.765054 3.78267 32.849121 17.051024
2004-05-14 07:25:10 51°27.46 2°59.11 11.75857 3.780667 32.836715 16.781349
2004-05-14 07:25:14 51°27.471 2°59.125 11.75446 3.776346 32.800491 16.545383
2004-05-14 07:25:20 51°27.488 2°59.15 11.756241 3.779403 32.835618 16.477965
2004-05-14 07:25:24 51°27.499 2°59.166 11.756469 3.775925 32.806149 16.208289
2004-05-14 07:25:30 51°27.516 2°59.19 11.758935 3.774976 32.80045 16.039742
2004-05-14 07:25:35 51°27.531 2°59.21 11.758935 3.774976 32.80045 16.039742
2004-05-14 07:25:40 51°27.544 2°59.23 11.76825 3.776241 32.815469 15.871195
2004-05-14 07:25:44 51°27.556 2°59.246 11.76898 3.77192 32.77853 15.567811
2004-05-14 07:25:48 51°27.567 2°59.262 11.764643 3.772131 32.779874 15.432973
2004-05-14 07:25:54 51°27.583 2°59.287 11.770806 3.773606 32.79415 15.163298
2004-05-14 07:26:00 51°27.6 2°59.311 11.764414 3.77329 32.792482 14.859913
2004-05-14 07:26:04 51°27.611 2°59.328 11.764414 3.77329 32.792482 14.859913
2004-05-14 07:26:10 51°27.628 2°59.352 11.76067 3.773185 32.78868 14.893623
2004-05-14 07:26:15 51°27.642 2°59.373 11.763775 3.772552 32.781172 14.691366
2004-05-14 07:26:20 51°27.656 2°59.393 11.757565 3.774555 32.800545 14.859913
2004-05-14 07:26:24 51°27.668 2°59.409 11.754232 3.772658 32.780106 14.859913
2004-05-14 07:26:30 51°27.685 2°59.434 11.763593 3.774555 32.79985 14.590238
2004-05-14 07:26:34 51°27.696 2°59.45 11.763593 3.774555 32.79985 14.590238
2004-05-14 07:26:40 51°27.713 2°59.475 11.75583 3.773606 32.792064 14.590238
2004-05-14 07:26:44 51°27.724 2°59.491 11.758935 3.771709 32.776491 14.859913
2004-05-14 07:26:50 51°27.741 2°59.515 11.766286 3.776874 32.827157 14.657657
2004-05-14 07:26:54 51°27.752 2°59.531 11.763182 3.773079 32.791138 14.725076
2004-05-14 07:27:00 51°27.769 2°59.555 11.765282 3.771077 32.771068 14.657657
2004-05-14 07:27:04 51°27.78 2°59.572 11.765282 3.771077 32.771068 14.657657
2004-05-14 07:27:09 51°27.794 2°59.592 11.766834 3.771498 32.775842 14.623947
2004-05-14 07:27:15 51°27.811 2°59.617 11.765738 3.773501 32.795217 14.758785
2004-05-14 07:27:20 51°27.825 2°59.637 11.768797 3.774133 32.798553 14.522819
2004-05-14 07:27:25 51°27.839 2°59.657 11.763912 3.775293 32.809075 14.623947
2004-05-14 07:27:30 51°27.854 2°59.677 11.767245 3.77603 32.816214 14.522819
2004-05-14 07:27:34 51°27.865 2°59.694 11.767245 3.77603 32.816214 14.522819
2004-05-14 07:27:40 51°27.882 2°59.718 11.762679 3.77329 32.790396 14.48911
2004-05-14 07:27:44 51°27.893 2°59.734 11.759209 3.776241 32.818949 14.792494
2004-05-14 07:27:50 51°27.91 2°59.759 11.76478 3.772869 32.785621 14.556529
2004-05-14 07:27:55 51°27.924 2°59.779 11.760442 3.774239 32.799573 14.691366
2004-05-14 07:28:00 51°27.938 2°59.799 11.757702 3.773501 32.791044 14.691366
2004-05-14 07:28:04 51°27.949 2°59.816 11.757702 3.773501 32.791044 14.691366
2004-05-14 07:28:10 51°27.966 2°59.841 11.756515 3.773185 32.78868 14.927332
2004-05-14 07:28:14 51°27.977 2°59.857 11.760488 3.776241 32.821734 14.725076
2004-05-14 07:28:20 51°27.994 2°59.881 11.762131 3.770655 32.766989 14.826204
2004-05-14 07:28:25 51°28.008 2°59.901 11.760579 3.772869 32.789794 14.556529
2004-05-14 07:28:30 51°28.023 2°59.922 11.760579 3.775082 32.810515 14.792494
2004-05-14 07:28:35 51°28.036 2°59.943 11.760579 3.775082 32.810515 14.792494
2004-05-14 07:28:40 51°28.05 2°59.963 11.760579 3.774133 32.80412 14.826204
2004-05-14 07:28:44 51°28.062 2°59.979 11.758205 3.773817 32.80106 14.927332
2004-05-14 07:28:48 51°28.073 2°59.996 11.756104 3.775293 32.815339 14.792494
2004-05-14 07:28:55 51°28.093 3°0.024 11.752907 3.776241 32.825215 15.230717
2004-05-14 07:29:00 51°28.107 3°0.045 11.748295 3.779719 32.857485 14.994751
2004-05-14 07:29:04 51°28.119 3°0.061 11.748295 3.779719 32.857485 14.994751
2004-05-14 07:29:10 51°28.136 3°0.086 11.751674 3.780036 32.860546 15.129589
2004-05-14 07:29:14 51°28.147 3°0.102 11.751903 3.779719 32.859577 15.230717
2004-05-14 07:29:20 51°28.164 3°0.127 11.748934 3.780246 32.866072 15.197007
2004-05-14 07:29:24 51°28.176 3°0.144 11.749437 3.779825 32.862688 15.230717
2004-05-14 07:29:30 51°28.193 3°0.168 11.744093 3.780246 32.869559 15.399264
2004-05-14 07:29:34 51°28.204 3°0.185 11.744093 3.780246 32.869559 15.399264
2004-05-14 07:29:40 51°28.221 3°0.21 11.743911 3.780668 32.874338 15.399264
2004-05-14 07:29:45 51°28.235 3°0.23 11.737882 3.780984 32.878795 15.331845
2004-05-14 07:29:49 51°28.246 3°0.246 11.732491 3.780668 32.876431 15.466683
2004-05-14 07:29:55 51°28.263 3°0.271 11.732994 3.78109 32.882607 15.298136
2004-05-14 07:30:00 51°28.278 3°0.292 11.733359 3.781195 32.884325 15.399264
2004-05-14 07:30:04 51°28.289 3°0.308 11.733359 3.781195 32.884325 15.399264
2004-05-14 07:30:09 51°28.303 3°0.329 11.730801 3.782144 32.896304 15.399264
2004-05-14 07:30:14 51°28.317 3°0.349 11.735004 3.782038 32.897378 15.432973
2004-05-14 07:30:20 51°28.334 3°0.373 11.729614 3.782249 32.90361 15.63523
2004-05-14 07:30:24 51°28.346 3°0.39 11.730619 3.782776 32.910811 16.17458
2004-05-14 07:30:29 51°28.36 3°0.41 11.734273 3.782882 32.912531 16.241999
2004-05-14 07:30:34 51°28.374 3°0.43 11.734273 3.782882 32.912531 16.241999
2004-05-14 07:30:40 51°28.391 3°0.456 11.731487 3.78383 32.92242 16.444255
2004-05-14 07:30:44 51°28.402 3°0.472 11.735324 3.784462 32.927847 16.781349
2004-05-14 07:30:50 51°28.419 3°0.496 11.740211 3.785622 32.93978 17.522956
2004-05-14 07:30:55 51°28.434 3°0.517 11.738704 3.78636 32.948327 18.331982
2004-05-14 07:31:00 51°28.448 3°0.537 11.73473 3.787519 32.958862 19.073589
2004-05-14 07:31:04 51°28.459 3°0.554 11.73473 3.787519 32.958862 19.073589
2004-05-14 07:31:10 51°28.476 3°0.579 11.73441 3.788151 32.96429 19.680358
2004-05-14 07:31:15 51°28.491 3°0.599 11.735369 3.788889 32.970739 20.219708
2004-05-14 07:31:20 51°28.505 3°0.619 11.73039 3.789627 32.975788 20.624221
2004-05-14 07:31:25 51°28.519 3°0.64 11.731669 3.789416 32.971646 20.927606
2004-05-14 07:31:30 51°28.533 3°0.661 11.730801 3.789943 32.979552 21.096153
2004-05-14 07:31:35 51°28.547 3°0.682 11.730801 3.789943 32.979552 21.096153
2004-05-14 07:31:40 51°28.561 3°0.702 11.733588 3.790154 32.981595 20.927606
2004-05-14 07:31:44 51°28.573 3°0.718 11.733359 3.789732 32.97891 20.489383
2004-05-14 07:31:50 51°28.59 3°0.743 11.733359 3.789732 32.981011 19.916324
2004-05-14 07:31:55 51°28.604 3°0.764 11.734273 3.788889 32.97494 19.309554
2004-05-14 07:32:00 51°28.618 3°0.785 11.736877 3.788784 32.972518 18.770204
2004-05-14 07:32:05 51°28.633 3°0.805 11.736877 3.788784 32.972518 18.770204
2004-05-14 07:32:10 51°28.647 3°0.826 11.735506 3.787941 32.964347 18.466819
2004-05-14 07:32:14 51°28.658 3°0.842 11.736374 3.787414 32.95924 17.758922
2004-05-14 07:32:20 51°28.675 3°0.867 11.736009 3.787097 32.956176 17.185862
2004-05-14 07:32:25 51°28.69 3°0.888 11.734867 3.786781 32.953112 16.983606
2004-05-14 07:32:30 51°28.704 3°0.908 11.732766 3.786465 32.948649 16.477965
2004-05-14 07:32:35 51°28.718 3°0.929 11.732766 3.786465 32.948649 16.477965
2004-05-14 07:32:40 51°28.732 3°0.95 11.735004 3.786149 32.945585 16.107161
2004-05-14 07:32:44 51°28.743 3°0.967 11.727192 3.785516 32.938059 15.770067
2004-05-14 07:32:48 51°28.755 3°0.984 11.731121 3.785411 32.939835 15.466683
2004-05-14 07:32:55 51°28.774 3°1.013 11.725182 3.785306 32.936017 15.331845
2004-05-14 07:33:00 51°28.789 3°1.034 11.72605 3.785411 32.938436 15.02846
2004-05-14 07:33:05 51°28.803 3°1.055 11.72605 3.785411 32.938436 15.02846
2004-05-14 07:33:10 51°28.817 3°1.075 11.719974 3.784779 32.933708 14.994751
2004-05-14 07:33:15 51°28.832 3°1.096 11.723172 3.784884 32.937527 14.927332
2004-05-14 07:33:20 51°28.846 3°1.117 11.72838 3.784779 32.937904 14.725076
2004-05-14 07:33:25 51°28.86 3°1.137 11.726507 3.784568 32.93796 14.623947
2004-05-14 07:33:29 51°28.872 3°1.154 11.727558 3.784568 32.93866 14.421691
2004-05-14 07:33:34 51°28.886 3°1.175 11.727558 3.784568 32.93866 14.421691
2004-05-14 07:33:39 51°28.9 3°1.196 11.732491 3.784779 32.943502 14.421691
2004-05-14 07:33:44 51°28.914 3°1.216 11.726918 3.784884 32.943823 14.556529
2004-05-14 07:33:50 51°28.932 3°1.241 11.725137 3.785306 32.94651 14.590238
2004-05-14 07:33:55 51°28.946 3°1.262 11.732035 3.785306 32.94511 14.623947
2004-05-14 07:34:00 51°28.959 3°1.285 11.727421 3.785517 32.947153 14.792494
2004-05-14 07:34:04 51°28.969 3°1.303 11.727421 3.785517 32.947153 14.792494
2004-05-14 07:34:10 51°28.984 3°1.331 11.725182 3.785833 32.949518 14.758785
2004-05-14 07:34:15 51°28.997 3°1.355 11.727147 3.786465 32.956347 14.961042
2004-05-14 07:34:20 51°29.009 3°1.379 11.724543 3.786465 32.954947 15.466683
2004-05-14 07:34:25 51°29.021 3°1.404 11.721482 3.786992 32.960754 15.500392
2004-05-14 07:34:30 51°29.033 3°1.428 11.722213 3.787098 32.962476 15.938614
2004-05-14 07:34:34 51°29.042 3°1.448 11.722213 3.787098 32.962476 15.938614
2004-05-14 07:34:40 51°29.056 3°1.477 11.714582 3.787941 32.970648 16.039742
2004-05-14 07:34:44 51°29.065 3°1.497 11.720476 3.787835 32.969627 16.343127
2004-05-14 07:34:50 51°29.08 3°1.526 11.714582 3.788046 32.974471 16.511674
2004-05-14 07:34:55 51°29.092 3°1.55 11.716227 3.788468 32.979959 16.781349
2004-05-14 07:35:00 51°29.104 3°1.575 11.722304 3.788995 32.985068 16.983606
2004-05-14 07:35:04 51°29.113 3°1.594 11.722304 3.788995 32.985068 16.983606
2004-05-14 07:35:10 51°29.128 3°1.623 11.717872 3.788784 32.985127 17.388118
2004-05-14 07:35:15 51°29.14 3°1.647 11.719837 3.789206 32.990616 17.657794
2004-05-14 07:35:20 51°29.152 3°1.672 11.722715 3.789311 32.992338 17.657794
2004-05-14 07:35:24 51°29.161 3°1.692 11.72372 3.789733 32.996426 17.556665
2004-05-14 07:35:30 51°29.176 3°1.721 11.718877 3.789311 32.992338 17.691503
2004-05-14 07:35:34 51°29.185 3°1.741 11.718877 3.789311 32.992338 17.691503
2004-05-14 07:35:40 51°29.2 3°1.77 11.720294 3.789416 32.994061 17.590375
2004-05-14 07:35:44 51°29.21 3°1.789 11.7197 3.789943 32.997769 17.522956
2004-05-14 07:35:50 51°29.224 3°1.819 11.720111 3.789943 32.996367 17.219571